CCA841 ZBAA-LOWW
Flight info
| Callsign | CCA841 |
|---|---|
| Flight time | 9h 36m |
| Altitude | 30100 |
| Route | IDKEX B339 POLHO Y520 SERNA/K0898F302 R497 KUMOD N869 DURTI L29 SUPEK DCT BENIM DCT INKUZ DCT LAFAT/N0476F302 DCT VABER DCT SUWGI DCT DESEN DCT MIKOV |
| Aircraft | A359/H-SDE3FGHIJ1J2J3J4J5M1P2RWYZ/LB1D1 |
Departure
| Time | 2026-04-25 00:24 |
|---|---|
| Airport | Beijing Capital International Airport (ZBAA) |
Arrival
| Time | 2026-04-25 10:01 |
|---|---|
| Airport | Vienna International Airport (LOWW) |
| Time | Latitude | Longitude | Altitude | Speed | Heading |
|---|---|---|---|---|---|
| 2026-04-24 23:57 | 40.07737 | 116.60910 | 130 ft | 0 kts | 318° |
| 2026-04-25 00:10 | 40.07733 | 116.60915 | 124 ft | 3 kts | 318° |
| 2026-04-25 00:11 | 40.07713 | 116.60938 | 124 ft | 4 kts | 318° |
| 2026-04-25 00:11 | 40.07696 | 116.60958 | 124 ft | 4 kts | 316° |
| 2026-04-25 00:11 | 40.07681 | 116.60985 | 131 ft | 4 kts | 279° |
| 2026-04-25 00:11 | 40.07685 | 116.61015 | 126 ft | 4 kts | 231° |
| 2026-04-25 00:12 | 40.07703 | 116.61041 | 124 ft | 3 kts | 231° |
| 2026-04-25 00:12 | 40.07705 | 116.61044 | 126 ft | 0 kts | 233° |
| 2026-04-25 00:16 | 40.07704 | 116.61043 | 126 ft | 2 kts | 233° |
| 2026-04-25 00:16 | 40.07679 | 116.61001 | 125 ft | 9 kts | 230° |
| 2026-04-25 00:16 | 40.07623 | 116.60934 | 125 ft | 12 kts | 214° |
| 2026-04-25 00:16 | 40.07548 | 116.60893 | 127 ft | 12 kts | 191° |
| 2026-04-25 00:17 | 40.07466 | 116.60896 | 127 ft | 12 kts | 174° |
| 2026-04-25 00:17 | 40.07381 | 116.60906 | 127 ft | 12 kts | 173° |
| 2026-04-25 00:17 | 40.07295 | 116.60920 | 125 ft | 13 kts | 172° |
| 2026-04-25 00:17 | 40.07206 | 116.60934 | 125 ft | 13 kts | 173° |
| 2026-04-25 00:18 | 40.07116 | 116.60948 | 124 ft | 13 kts | 173° |
| 2026-04-25 00:18 | 40.07022 | 116.60962 | 125 ft | 14 kts | 173° |
| 2026-04-25 00:18 | 40.06959 | 116.60989 | 125 ft | 9 kts | 131° |
| 2026-04-25 00:18 | 40.06947 | 116.61085 | 130 ft | 13 kts | 85° |
| 2026-04-25 00:19 | 40.06957 | 116.61200 | 128 ft | 14 kts | 83° |
| 2026-04-25 00:19 | 40.06966 | 116.61317 | 130 ft | 10 kts | 92° |
| 2026-04-25 00:19 | 40.06915 | 116.61368 | 126 ft | 11 kts | 163° |
| 2026-04-25 00:19 | 40.06829 | 116.61385 | 126 ft | 13 kts | 172° |
| 2026-04-25 00:20 | 40.06734 | 116.61400 | 127 ft | 15 kts | 173° |
| 2026-04-25 00:20 | 40.06623 | 116.61416 | 125 ft | 16 kts | 173° |
| 2026-04-25 00:20 | 40.06509 | 116.61432 | 127 ft | 16 kts | 173° |
| 2026-04-25 00:20 | 40.06396 | 116.61450 | 124 ft | 16 kts | 173° |
| 2026-04-25 00:21 | 40.06283 | 116.61469 | 127 ft | 16 kts | 172° |
| 2026-04-25 00:21 | 40.06171 | 116.61487 | 126 ft | 16 kts | 174° |
| 2026-04-25 00:21 | 40.06061 | 116.61505 | 125 ft | 16 kts | 172° |
| 2026-04-25 00:21 | 40.05983 | 116.61517 | 127 ft | 0 kts | 173° |
| 2026-04-25 00:22 | 40.05982 | 116.61517 | 127 ft | 1 kts | 173° |
| 2026-04-25 00:22 | 40.05964 | 116.61527 | 127 ft | 5 kts | 148° |
| 2026-04-25 00:22 | 40.05950 | 116.61588 | 126 ft | 10 kts | 85° |
| 2026-04-25 00:22 | 40.05958 | 116.61698 | 129 ft | 14 kts | 75° |
| 2026-04-25 00:23 | 40.06031 | 116.61745 | 126 ft | 12 kts | 356° |
| 2026-04-25 00:23 | 40.06054 | 116.61741 | 127 ft | 0 kts | 352° |
| 2026-04-25 00:23 | 40.06060 | 116.61740 | 124 ft | 8 kts | 352° |
| 2026-04-25 00:23 | 40.06323 | 116.61699 | 127 ft | 68 kts | 353° |
| 2026-04-25 00:24 | 40.06981 | 116.61596 | 125 ft | 121 kts | 353° |
| 2026-04-25 00:24 | 40.07975 | 116.61442 | 127 ft | 166 kts | 353° |
| 2026-04-25 00:24 | 40.09134 | 116.61265 | 690 ft | 159 kts | 355° |
| 2026-04-25 00:24 | 40.10279 | 116.61172 | 956 ft | 180 kts | 5° |
| 2026-04-25 00:25 | 40.11430 | 116.61854 | 1342 ft | 187 kts | 34° |
| 2026-04-25 00:25 | 40.12565 | 116.62812 | 1551 ft | 202 kts | 31° |
| 2026-04-25 00:25 | 40.13858 | 116.63696 | 1769 ft | 218 kts | 26° |
| 2026-04-25 00:25 | 40.15276 | 116.64592 | 1950 ft | 235 kts | 30° |
| 2026-04-25 00:26 | 40.16530 | 116.66045 | 2129 ft | 251 kts | 59° |
| 2026-04-25 00:26 | 40.17072 | 116.68236 | 2467 ft | 258 kts | 84° |
| 2026-04-25 00:26 | 40.17275 | 116.70592 | 2919 ft | 263 kts | 86° |
| 2026-04-25 00:26 | 40.17453 | 116.72994 | 3413 ft | 268 kts | 87° |
| 2026-04-25 00:27 | 40.17644 | 116.75427 | 3886 ft | 272 kts | 86° |
| 2026-04-25 00:27 | 40.17846 | 116.77902 | 4351 ft | 276 kts | 86° |
| 2026-04-25 00:27 | 40.18154 | 116.80403 | 4819 ft | 283 kts | 75° |
| 2026-04-25 00:27 | 40.19122 | 116.82637 | 5268 ft | 288 kts | 45° |
| 2026-04-25 00:28 | 40.20799 | 116.84052 | 5800 ft | 289 kts | 22° |
| 2026-04-25 00:28 | 40.22673 | 116.85012 | 6343 ft | 290 kts | 19° |
| 2026-04-25 00:28 | 40.24546 | 116.85916 | 6891 ft | 291 kts | 19° |
| 2026-04-25 00:28 | 40.26443 | 116.86842 | 7507 ft | 290 kts | 19° |
| 2026-04-25 00:29 | 40.28330 | 116.87778 | 8135 ft | 290 kts | 19° |
| 2026-04-25 00:29 | 40.30212 | 116.88715 | 8757 ft | 290 kts | 19° |
| 2026-04-25 00:29 | 40.32097 | 116.89657 | 9364 ft | 290 kts | 19° |
| 2026-04-25 00:29 | 40.33983 | 116.90603 | 9948 ft | 290 kts | 19° |
| 2026-04-25 00:30 | 40.35889 | 116.91560 | 10329 ft | 299 kts | 19° |
| 2026-04-25 00:30 | 40.37879 | 116.92561 | 10562 ft | 313 kts | 19° |
| 2026-04-25 00:30 | 40.39956 | 116.93606 | 10794 ft | 327 kts | 19° |
| 2026-04-25 00:30 | 40.42124 | 116.94698 | 11025 ft | 340 kts | 19° |
| 2026-04-25 00:31 | 40.44374 | 116.95833 | 11254 ft | 353 kts | 19° |
| 2026-04-25 00:31 | 40.46708 | 116.97012 | 11479 ft | 365 kts | 19° |
| 2026-04-25 00:31 | 40.49127 | 116.98189 | 11704 ft | 376 kts | 15° |
| 2026-04-25 00:31 | 40.51712 | 116.98678 | 12024 ft | 378 kts | 355° |
| 2026-04-25 00:32 | 40.54256 | 116.97880 | 12474 ft | 378 kts | 333° |
| 2026-04-25 00:32 | 40.56384 | 116.95900 | 12932 ft | 377 kts | 312° |
| 2026-04-25 00:32 | 40.58003 | 116.93190 | 13438 ft | 378 kts | 304° |
| 2026-04-25 00:32 | 40.59507 | 116.90347 | 13931 ft | 381 kts | 303° |
| 2026-04-25 00:33 | 40.61030 | 116.87481 | 14387 ft | 383 kts | 304° |
| 2026-04-25 00:33 | 40.62573 | 116.84614 | 14881 ft | 385 kts | 304° |
| 2026-04-25 00:33 | 40.64128 | 116.81741 | 15356 ft | 386 kts | 304° |
| 2026-04-25 00:33 | 40.65696 | 116.78857 | 15816 ft | 389 kts | 304° |
| 2026-04-25 00:34 | 40.67277 | 116.75955 | 16314 ft | 391 kts | 304° |
| 2026-04-25 00:34 | 40.68862 | 116.73049 | 16749 ft | 393 kts | 304° |
| 2026-04-25 00:34 | 40.70466 | 116.70107 | 17218 ft | 395 kts | 304° |
| 2026-04-25 00:34 | 40.72074 | 116.67161 | 17680 ft | 397 kts | 304° |
| 2026-04-25 00:35 | 40.73692 | 116.64193 | 18153 ft | 399 kts | 304° |
| 2026-04-25 00:35 | 40.75370 | 116.61263 | 18550 ft | 403 kts | 309° |
| 2026-04-25 00:35 | 40.77436 | 116.58749 | 18933 ft | 407 kts | 323° |
| 2026-04-25 00:35 | 40.79951 | 116.57007 | 19331 ft | 413 kts | 339° |
| 2026-04-25 00:36 | 40.82758 | 116.56130 | 19743 ft | 417 kts | 349° |
| 2026-04-25 00:36 | 40.85651 | 116.55670 | 20187 ft | 421 kts | 352° |
| 2026-04-25 00:36 | 40.88583 | 116.55394 | 20608 ft | 424 kts | 354° |
| 2026-04-25 00:36 | 40.91535 | 116.55191 | 21046 ft | 426 kts | 354° |
| 2026-04-25 00:37 | 40.94504 | 116.54997 | 21490 ft | 428 kts | 354° |
| 2026-04-25 00:37 | 40.97481 | 116.54783 | 21910 ft | 430 kts | 354° |
| 2026-04-25 00:37 | 41.00476 | 116.54543 | 22319 ft | 432 kts | 353° |
| 2026-04-25 00:37 | 41.03486 | 116.54280 | 22718 ft | 435 kts | 353° |
| 2026-04-25 00:38 | 41.06512 | 116.54004 | 23168 ft | 437 kts | 353° |
| 2026-04-25 00:38 | 41.09551 | 116.53719 | 23579 ft | 439 kts | 352° |
| 2026-04-25 00:38 | 41.12562 | 116.53433 | 23920 ft | 440 kts | 352° |
| 2026-04-25 00:38 | 41.15621 | 116.53143 | 24274 ft | 442 kts | 352° |
| 2026-04-25 00:39 | 41.18695 | 116.52851 | 24623 ft | 444 kts | 353° |
| 2026-04-25 00:39 | 41.21750 | 116.52330 | 24974 ft | 442 kts | 346° |
| 2026-04-25 00:39 | 41.24711 | 116.51271 | 25332 ft | 440 kts | 338° |
| 2026-04-25 00:39 | 41.27508 | 116.49640 | 25697 ft | 439 kts | 330° |
| 2026-04-25 00:40 | 41.30202 | 116.47720 | 26031 ft | 440 kts | 328° |
| 2026-04-25 00:40 | 41.32857 | 116.45680 | 26359 ft | 442 kts | 327° |
| 2026-04-25 00:40 | 41.35497 | 116.43576 | 26678 ft | 443 kts | 327° |
| 2026-04-25 00:40 | 41.38136 | 116.41448 | 27052 ft | 444 kts | 327° |
| 2026-04-25 00:41 | 41.40781 | 116.39318 | 27373 ft | 445 kts | 327° |
| 2026-04-25 00:41 | 41.43441 | 116.37183 | 27691 ft | 447 kts | 327° |
| 2026-04-25 00:41 | 41.46114 | 116.35046 | 28002 ft | 449 kts | 327° |
| 2026-04-25 00:41 | 41.48797 | 116.32910 | 28333 ft | 450 kts | 327° |
| 2026-04-25 00:42 | 41.51491 | 116.30768 | 28597 ft | 452 kts | 327° |
| 2026-04-25 00:42 | 41.54190 | 116.28621 | 28904 ft | 453 kts | 327° |
| 2026-04-25 00:42 | 41.56903 | 116.26461 | 29186 ft | 454 kts | 327° |
| 2026-04-25 00:42 | 41.59626 | 116.24292 | 29410 ft | 457 kts | 327° |
| 2026-04-25 00:43 | 41.62362 | 116.22107 | 29642 ft | 459 kts | 327° |
| 2026-04-25 00:43 | 41.65109 | 116.19915 | 29909 ft | 460 kts | 327° |
| 2026-04-25 00:43 | 41.67864 | 116.17713 | 30037 ft | 462 kts | 327° |
| 2026-04-25 00:43 | 41.70619 | 116.15510 | 30045 ft | 460 kts | 327° |
| 2026-04-25 00:44 | 41.76102 | 116.11118 | 30045 ft | 459 kts | 327° |
| 2026-04-25 00:44 | 41.81582 | 116.06717 | 30041 ft | 459 kts | 327° |
| 2026-04-25 00:45 | 41.87061 | 116.02307 | 30040 ft | 459 kts | 327° |
| 2026-04-25 00:45 | 41.92540 | 115.97890 | 30042 ft | 460 kts | 327° |
| 2026-04-25 00:46 | 41.97972 | 115.93463 | 30042 ft | 459 kts | 325° |
| 2026-04-25 00:47 | 42.05824 | 115.86149 | 30041 ft | 458 kts | 323° |
| 2026-04-25 00:47 | 42.11030 | 115.81205 | 30041 ft | 458 kts | 323° |
| 2026-04-25 00:48 | 42.16262 | 115.76309 | 30032 ft | 458 kts | 323° |
| 2026-04-25 00:48 | 42.21502 | 115.71432 | 30036 ft | 457 kts | 323° |
| 2026-04-25 00:49 | 42.26731 | 115.66563 | 30027 ft | 457 kts | 323° |
| 2026-04-25 00:49 | 42.31963 | 115.61683 | 30028 ft | 457 kts | 323° |
| 2026-04-25 00:50 | 42.37183 | 115.56795 | 30013 ft | 456 kts | 323° |
| 2026-04-25 00:50 | 42.41552 | 115.52697 | 30014 ft | 455 kts | 323° |
| 2026-04-25 00:51 | 42.46719 | 115.47843 | 30021 ft | 455 kts | 323° |
| 2026-04-25 00:51 | 42.51919 | 115.42948 | 30003 ft | 455 kts | 323° |
| 2026-04-25 00:52 | 42.57115 | 115.38047 | 30002 ft | 455 kts | 323° |
| 2026-04-25 00:52 | 42.62306 | 115.33143 | 29999 ft | 454 kts | 322° |
| 2026-04-25 00:53 | 42.67480 | 115.28243 | 30002 ft | 453 kts | 322° |
| 2026-04-25 00:53 | 42.72652 | 115.23333 | 30003 ft | 454 kts | 322° |
| 2026-04-25 00:54 | 42.77827 | 115.18411 | 29976 ft | 454 kts | 322° |
| 2026-04-25 00:54 | 42.82999 | 115.13482 | 29979 ft | 454 kts | 322° |
| 2026-04-25 00:55 | 42.88164 | 115.08550 | 29971 ft | 454 kts | 322° |
| 2026-04-25 00:55 | 42.93332 | 115.03604 | 29977 ft | 454 kts | 322° |
| 2026-04-25 00:56 | 42.98497 | 114.98651 | 29977 ft | 454 kts | 322° |
| 2026-04-25 00:56 | 43.03654 | 114.93696 | 29970 ft | 453 kts | 322° |
| 2026-04-25 00:57 | 43.08800 | 114.88741 | 29968 ft | 453 kts | 322° |
| 2026-04-25 00:57 | 43.13958 | 114.83793 | 29967 ft | 453 kts | 322° |
| 2026-04-25 00:58 | 43.19163 | 114.78935 | 29965 ft | 453 kts | 323° |
| 2026-04-25 00:58 | 43.24371 | 114.74091 | 29964 ft | 453 kts | 322° |
| 2026-04-25 00:59 | 43.29575 | 114.69220 | 29963 ft | 453 kts | 322° |
| 2026-04-25 00:59 | 43.34774 | 114.64331 | 29960 ft | 453 kts | 322° |
| 2026-04-25 01:00 | 43.39968 | 114.59433 | 29958 ft | 453 kts | 322° |
| 2026-04-25 01:00 | 43.45156 | 114.54531 | 29958 ft | 452 kts | 322° |
| 2026-04-25 01:01 | 43.50335 | 114.49628 | 29956 ft | 452 kts | 322° |
| 2026-04-25 01:01 | 43.55516 | 114.44712 | 29956 ft | 452 kts | 322° |
| 2026-04-25 01:02 | 43.60700 | 114.39782 | 29947 ft | 452 kts | 322° |
| 2026-04-25 01:02 | 43.65845 | 114.34880 | 29957 ft | 452 kts | 322° |
| 2026-04-25 01:03 | 43.71018 | 114.29941 | 29948 ft | 452 kts | 322° |
| 2026-04-25 01:03 | 43.76194 | 114.24989 | 29948 ft | 452 kts | 322° |
| 2026-04-25 01:04 | 43.81367 | 114.20028 | 29950 ft | 453 kts | 322° |
| 2026-04-25 01:04 | 43.86539 | 114.15057 | 29943 ft | 452 kts | 322° |
| 2026-04-25 01:05 | 43.91710 | 114.10077 | 29940 ft | 452 kts | 322° |
| 2026-04-25 01:05 | 43.96876 | 114.05091 | 29956 ft | 453 kts | 322° |
| 2026-04-25 01:06 | 44.02043 | 114.00094 | 29940 ft | 453 kts | 321° |
| 2026-04-25 01:06 | 44.07208 | 113.95087 | 29944 ft | 453 kts | 321° |
| 2026-04-25 01:07 | 44.12373 | 113.90070 | 29938 ft | 452 kts | 321° |
| 2026-04-25 01:07 | 44.17530 | 113.85048 | 29940 ft | 453 kts | 321° |
| 2026-04-25 01:08 | 44.22690 | 113.80013 | 29958 ft | 453 kts | 321° |
| 2026-04-25 01:08 | 44.27845 | 113.74973 | 29940 ft | 453 kts | 321° |
| 2026-04-25 01:09 | 44.32996 | 113.69925 | 29934 ft | 453 kts | 321° |
| 2026-04-25 01:09 | 44.38151 | 113.64863 | 29935 ft | 453 kts | 321° |
| 2026-04-25 01:10 | 44.43298 | 113.59796 | 29934 ft | 452 kts | 321° |
| 2026-04-25 01:10 | 44.48410 | 113.54755 | 29929 ft | 452 kts | 321° |
| 2026-04-25 01:11 | 44.53561 | 113.49663 | 29924 ft | 454 kts | 320° |
| 2026-04-25 01:11 | 44.58715 | 113.44555 | 29924 ft | 454 kts | 320° |
| 2026-04-25 01:12 | 44.63871 | 113.39436 | 29926 ft | 454 kts | 320° |
| 2026-04-25 01:12 | 44.69025 | 113.34307 | 29926 ft | 454 kts | 320° |
| 2026-04-25 01:13 | 44.74177 | 113.29169 | 29928 ft | 455 kts | 320° |
| 2026-04-25 01:13 | 44.79340 | 113.24006 | 29929 ft | 455 kts | 320° |
| 2026-04-25 01:14 | 44.84400 | 113.18668 | 29932 ft | 454 kts | 318° |
| 2026-04-25 01:14 | 44.89399 | 113.13220 | 29934 ft | 454 kts | 318° |
| 2026-04-25 01:15 | 44.94409 | 113.07781 | 29937 ft | 454 kts | 318° |
| 2026-04-25 01:15 | 44.99431 | 113.02359 | 29942 ft | 454 kts | 318° |
| 2026-04-25 01:16 | 45.04453 | 112.96939 | 29942 ft | 455 kts | 318° |
| 2026-04-25 01:16 | 45.09481 | 112.91499 | 29945 ft | 455 kts | 318° |
| 2026-04-25 01:17 | 45.14503 | 112.86052 | 29966 ft | 455 kts | 318° |
| 2026-04-25 01:17 | 45.19534 | 112.80581 | 29958 ft | 457 kts | 318° |
| 2026-04-25 01:18 | 45.24571 | 112.75091 | 29972 ft | 457 kts | 318° |
| 2026-04-25 01:18 | 45.29612 | 112.69586 | 29983 ft | 457 kts | 318° |
| 2026-04-25 01:19 | 45.34638 | 112.64085 | 29988 ft | 456 kts | 317° |
| 2026-04-25 01:19 | 45.39660 | 112.58573 | 29988 ft | 457 kts | 318° |
| 2026-04-25 01:20 | 45.44694 | 112.53035 | 29990 ft | 457 kts | 318° |
| 2026-04-25 01:20 | 45.49728 | 112.47486 | 30008 ft | 457 kts | 317° |
| 2026-04-25 01:21 | 45.54759 | 112.41926 | 30008 ft | 457 kts | 317° |
| 2026-04-25 01:21 | 45.59784 | 112.36363 | 30024 ft | 456 kts | 317° |
| 2026-04-25 01:22 | 45.64753 | 112.30847 | 30019 ft | 455 kts | 317° |
| 2026-04-25 01:22 | 45.69751 | 112.25286 | 30037 ft | 455 kts | 317° |
| 2026-04-25 01:23 | 45.74746 | 112.19713 | 30036 ft | 455 kts | 317° |
| 2026-04-25 01:23 | 45.79740 | 112.14129 | 30057 ft | 455 kts | 317° |
| 2026-04-25 01:24 | 45.84734 | 112.08533 | 30065 ft | 456 kts | 317° |
| 2026-04-25 01:24 | 45.89718 | 112.02935 | 30073 ft | 454 kts | 317° |
| 2026-04-25 01:25 | 45.94695 | 111.97333 | 30083 ft | 454 kts | 317° |
| 2026-04-25 01:25 | 45.99666 | 111.91724 | 30072 ft | 454 kts | 317° |
| 2026-04-25 01:26 | 46.04632 | 111.86106 | 30079 ft | 454 kts | 318° |
| 2026-04-25 01:26 | 46.09601 | 111.80472 | 30076 ft | 454 kts | 318° |
| 2026-04-25 01:27 | 46.14565 | 111.74833 | 30089 ft | 454 kts | 317° |
| 2026-04-25 01:27 | 46.19529 | 111.69178 | 30087 ft | 455 kts | 317° |
| 2026-04-25 01:28 | 46.26975 | 111.60670 | 30093 ft | 456 kts | 317° |
| 2026-04-25 01:28 | 46.31914 | 111.55009 | 30093 ft | 456 kts | 317° |
| 2026-04-25 01:29 | 46.36884 | 111.49301 | 30099 ft | 456 kts | 317° |
| 2026-04-25 01:29 | 46.41847 | 111.43591 | 30099 ft | 454 kts | 316° |
| 2026-04-25 01:30 | 46.46779 | 111.37902 | 30104 ft | 453 kts | 316° |
| 2026-04-25 01:30 | 46.51710 | 111.32193 | 30108 ft | 454 kts | 316° |
| 2026-04-25 01:31 | 46.56646 | 111.26467 | 30114 ft | 454 kts | 316° |
| 2026-04-25 01:31 | 46.61577 | 111.20735 | 30113 ft | 454 kts | 316° |
| 2026-04-25 01:32 | 46.66502 | 111.14997 | 30141 ft | 454 kts | 316° |
| 2026-04-25 01:32 | 46.71414 | 111.09261 | 30118 ft | 452 kts | 317° |
| 2026-04-25 01:33 | 46.76315 | 111.03523 | 30115 ft | 451 kts | 317° |
| 2026-04-25 01:33 | 46.81209 | 110.97778 | 30123 ft | 452 kts | 317° |
| 2026-04-25 01:34 | 46.86100 | 110.92022 | 30120 ft | 452 kts | 317° |
| 2026-04-25 01:34 | 46.90988 | 110.86257 | 30122 ft | 452 kts | 317° |
| 2026-04-25 01:35 | 46.95869 | 110.80487 | 30130 ft | 450 kts | 317° |
| 2026-04-25 01:35 | 47.00726 | 110.74733 | 30128 ft | 448 kts | 317° |
| 2026-04-25 01:36 | 47.05572 | 110.68976 | 30128 ft | 448 kts | 317° |
| 2026-04-25 01:36 | 47.10414 | 110.63209 | 30124 ft | 448 kts | 317° |
| 2026-04-25 01:37 | 47.15252 | 110.57434 | 30127 ft | 448 kts | 317° |
| 2026-04-25 01:37 | 47.20055 | 110.51687 | 30121 ft | 448 kts | 317° |
| 2026-04-25 01:38 | 47.24889 | 110.45889 | 30126 ft | 448 kts | 316° |
| 2026-04-25 01:38 | 47.29707 | 110.40099 | 30114 ft | 447 kts | 316° |
| 2026-04-25 01:39 | 47.33737 | 110.35241 | 30110 ft | 447 kts | 316° |
| 2026-04-25 01:39 | 47.38546 | 110.29433 | 30104 ft | 447 kts | 317° |
| 2026-04-25 01:40 | 47.43346 | 110.23621 | 30105 ft | 446 kts | 317° |
| 2026-04-25 01:40 | 47.48142 | 110.17800 | 30105 ft | 446 kts | 316° |
| 2026-04-25 01:41 | 47.52902 | 110.12008 | 30101 ft | 446 kts | 316° |
| 2026-04-25 01:41 | 47.57690 | 110.06169 | 30101 ft | 446 kts | 316° |
| 2026-04-25 01:42 | 47.62473 | 110.00321 | 30104 ft | 445 kts | 317° |
| 2026-04-25 01:42 | 47.67246 | 109.94472 | 30102 ft | 445 kts | 317° |
| 2026-04-25 01:43 | 47.72015 | 109.88613 | 30105 ft | 445 kts | 317° |
| 2026-04-25 01:43 | 47.77133 | 109.82309 | 30109 ft | 445 kts | 317° |
| 2026-04-25 01:44 | 47.81895 | 109.76429 | 30112 ft | 444 kts | 317° |
| 2026-04-25 01:44 | 47.86615 | 109.70589 | 30113 ft | 439 kts | 317° |
| 2026-04-25 01:45 | 47.91271 | 109.64814 | 30114 ft | 438 kts | 317° |
| 2026-04-25 01:45 | 47.95947 | 109.58993 | 30111 ft | 438 kts | 317° |
| 2026-04-25 01:46 | 48.00622 | 109.53159 | 30124 ft | 438 kts | 317° |
| 2026-04-25 01:46 | 48.05291 | 109.47319 | 30123 ft | 437 kts | 317° |
| 2026-04-25 01:47 | 48.09932 | 109.41505 | 30141 ft | 434 kts | 317° |
| 2026-04-25 01:47 | 48.14564 | 109.35687 | 30131 ft | 435 kts | 317° |
| 2026-04-25 01:48 | 48.19202 | 109.29844 | 30149 ft | 435 kts | 317° |
| 2026-04-25 01:48 | 48.23835 | 109.23994 | 30147 ft | 435 kts | 317° |
| 2026-04-25 01:49 | 48.28463 | 109.18135 | 30157 ft | 436 kts | 317° |
| 2026-04-25 01:49 | 48.33099 | 109.12254 | 30160 ft | 436 kts | 317° |
| 2026-04-25 01:50 | 48.37734 | 109.06361 | 30190 ft | 437 kts | 317° |
| 2026-04-25 01:50 | 48.42379 | 109.00441 | 30174 ft | 438 kts | 317° |
| 2026-04-25 01:51 | 48.47026 | 108.94502 | 30171 ft | 438 kts | 317° |
| 2026-04-25 01:51 | 48.51661 | 108.88559 | 30172 ft | 437 kts | 317° |
| 2026-04-25 01:52 | 48.56250 | 108.82663 | 30172 ft | 435 kts | 317° |
| 2026-04-25 01:52 | 48.60855 | 108.76733 | 30178 ft | 435 kts | 317° |
| 2026-04-25 01:53 | 48.65459 | 108.70788 | 30175 ft | 435 kts | 317° |
| 2026-04-25 01:53 | 48.70043 | 108.64857 | 30174 ft | 432 kts | 317° |
| 2026-04-25 01:54 | 48.74624 | 108.58916 | 30181 ft | 429 kts | 317° |
| 2026-04-25 01:54 | 48.79080 | 108.53118 | 30178 ft | 422 kts | 317° |
| 2026-04-25 01:55 | 48.83528 | 108.47319 | 30179 ft | 421 kts | 317° |
| 2026-04-25 01:55 | 48.87972 | 108.41513 | 30183 ft | 422 kts | 317° |
| 2026-04-25 01:56 | 48.92410 | 108.35695 | 30193 ft | 421 kts | 317° |
| 2026-04-25 01:56 | 48.96848 | 108.29866 | 30179 ft | 419 kts | 317° |
| 2026-04-25 01:57 | 49.03401 | 108.21232 | 30204 ft | 414 kts | 317° |
| 2026-04-25 01:58 | 49.07752 | 108.15484 | 30204 ft | 414 kts | 317° |
| 2026-04-25 01:58 | 49.12097 | 108.09726 | 30216 ft | 413 kts | 317° |
| 2026-04-25 01:59 | 49.16439 | 108.03965 | 30213 ft | 413 kts | 317° |
| 2026-04-25 01:59 | 49.20776 | 107.98194 | 30226 ft | 413 kts | 317° |
| 2026-04-25 02:00 | 49.25083 | 107.92447 | 30267 ft | 409 kts | 317° |
| 2026-04-25 02:00 | 49.29354 | 107.86739 | 30234 ft | 406 kts | 317° |
| 2026-04-25 02:01 | 49.33602 | 107.81043 | 30239 ft | 406 kts | 317° |
| 2026-04-25 02:01 | 49.37845 | 107.75340 | 30237 ft | 406 kts | 317° |
| 2026-04-25 02:02 | 49.42092 | 107.69618 | 30249 ft | 406 kts | 317° |
| 2026-04-25 02:02 | 49.46337 | 107.63888 | 30249 ft | 406 kts | 317° |
| 2026-04-25 02:03 | 49.50577 | 107.58148 | 30270 ft | 406 kts | 317° |
| 2026-04-25 02:03 | 49.54783 | 107.52441 | 30281 ft | 406 kts | 316° |
| 2026-04-25 02:04 | 49.59012 | 107.46693 | 30284 ft | 405 kts | 316° |
| 2026-04-25 02:04 | 49.63240 | 107.40931 | 30284 ft | 405 kts | 316° |
| 2026-04-25 02:05 | 49.67460 | 107.35164 | 30266 ft | 405 kts | 317° |
| 2026-04-25 02:05 | 49.71669 | 107.29401 | 30282 ft | 404 kts | 317° |
| 2026-04-25 02:06 | 49.75867 | 107.23636 | 30285 ft | 404 kts | 317° |
| 2026-04-25 02:06 | 49.79382 | 107.18798 | 30286 ft | 404 kts | 317° |
| 2026-04-25 02:07 | 49.83542 | 107.13060 | 30323 ft | 403 kts | 316° |
| 2026-04-25 02:07 | 49.87742 | 107.07251 | 30286 ft | 406 kts | 316° |
| 2026-04-25 02:08 | 49.91954 | 107.01416 | 30279 ft | 405 kts | 317° |
| 2026-04-25 02:08 | 49.96133 | 106.95614 | 30289 ft | 402 kts | 316° |
| 2026-04-25 02:09 | 50.00294 | 106.89818 | 30289 ft | 402 kts | 316° |
| 2026-04-25 02:09 | 50.04449 | 106.84013 | 30281 ft | 401 kts | 316° |
| 2026-04-25 02:10 | 50.08602 | 106.78202 | 30283 ft | 401 kts | 316° |
| 2026-04-25 02:10 | 50.12750 | 106.72383 | 30290 ft | 401 kts | 316° |
| 2026-04-25 02:11 | 50.16897 | 106.66553 | 30277 ft | 401 kts | 316° |
| 2026-04-25 02:11 | 50.21025 | 106.60735 | 30280 ft | 399 kts | 316° |
| 2026-04-25 02:12 | 50.25143 | 106.54916 | 30273 ft | 399 kts | 316° |
| 2026-04-25 02:12 | 50.29257 | 106.49088 | 30275 ft | 399 kts | 316° |
| 2026-04-25 02:13 | 50.33359 | 106.43253 | 30276 ft | 399 kts | 316° |
| 2026-04-25 02:13 | 50.37445 | 106.37365 | 30267 ft | 399 kts | 316° |
| 2026-04-25 02:14 | 50.41480 | 106.31523 | 30264 ft | 395 kts | 316° |
| 2026-04-25 02:14 | 50.45514 | 106.25683 | 30270 ft | 394 kts | 316° |
| 2026-04-25 02:15 | 50.49543 | 106.19842 | 30269 ft | 394 kts | 316° |
| 2026-04-25 02:15 | 50.53569 | 106.13992 | 30275 ft | 394 kts | 316° |
| 2026-04-25 02:16 | 50.57592 | 106.08131 | 30277 ft | 394 kts | 316° |
| 2026-04-25 02:16 | 50.61613 | 106.02259 | 30240 ft | 394 kts | 316° |
| 2026-04-25 02:17 | 50.65612 | 105.96404 | 30276 ft | 391 kts | 316° |
| 2026-04-25 02:17 | 50.69593 | 105.90561 | 30276 ft | 391 kts | 316° |
| 2026-04-25 02:18 | 50.73567 | 105.84715 | 30294 ft | 391 kts | 316° |
| 2026-04-25 02:18 | 50.77549 | 105.78843 | 30279 ft | 392 kts | 316° |
| 2026-04-25 02:19 | 50.81528 | 105.72966 | 30272 ft | 392 kts | 316° |
| 2026-04-25 02:19 | 50.85506 | 105.67066 | 30235 ft | 392 kts | 316° |
| 2026-04-25 02:20 | 50.89470 | 105.61156 | 30279 ft | 390 kts | 316° |
| 2026-04-25 02:20 | 50.93421 | 105.55256 | 30284 ft | 391 kts | 316° |
| 2026-04-25 02:21 | 50.97371 | 105.49344 | 30283 ft | 390 kts | 316° |
| 2026-04-25 02:21 | 51.01321 | 105.43423 | 30287 ft | 390 kts | 316° |
| 2026-04-25 02:22 | 51.05274 | 105.37478 | 30292 ft | 394 kts | 316° |
| 2026-04-25 02:22 | 51.09261 | 105.31470 | 30294 ft | 395 kts | 316° |
| 2026-04-25 02:23 | 51.13235 | 105.25466 | 30302 ft | 393 kts | 316° |
| 2026-04-25 02:23 | 51.17192 | 105.19475 | 30302 ft | 392 kts | 316° |
| 2026-04-25 02:24 | 51.21140 | 105.13479 | 30313 ft | 392 kts | 316° |
| 2026-04-25 02:24 | 51.25089 | 105.07471 | 30311 ft | 392 kts | 316° |
| 2026-04-25 02:25 | 51.29036 | 105.01456 | 30309 ft | 392 kts | 316° |
| 2026-04-25 02:25 | 51.32974 | 104.95425 | 30328 ft | 392 kts | 316° |
| 2026-04-25 02:26 | 51.36883 | 104.89408 | 30309 ft | 388 kts | 316° |
| 2026-04-25 02:26 | 51.40784 | 104.83418 | 30308 ft | 389 kts | 316° |
| 2026-04-25 02:27 | 51.44680 | 104.77411 | 30307 ft | 388 kts | 316° |
| 2026-04-25 02:27 | 51.48570 | 104.71408 | 30297 ft | 388 kts | 316° |
| 2026-04-25 02:28 | 51.52433 | 104.65429 | 30297 ft | 388 kts | 316° |
| 2026-04-25 02:28 | 51.56316 | 104.59400 | 30295 ft | 388 kts | 316° |
| 2026-04-25 02:29 | 51.60207 | 104.53387 | 30292 ft | 387 kts | 316° |
| 2026-04-25 02:29 | 51.64123 | 104.47423 | 30397 ft | 391 kts | 316° |
| 2026-04-25 02:30 | 51.68118 | 104.41334 | 30588 ft | 400 kts | 316° |
| 2026-04-25 02:30 | 51.70143 | 104.38237 | 30734 ft | 403 kts | 316° |
| 2026-04-25 02:30 | 51.72182 | 104.35111 | 30947 ft | 405 kts | 316° |
| 2026-04-25 02:30 | 51.74222 | 104.31978 | 31154 ft | 406 kts | 316° |
| 2026-04-25 02:31 | 51.76270 | 104.28827 | 31353 ft | 408 kts | 316° |
| 2026-04-25 02:31 | 51.78325 | 104.25660 | 31545 ft | 409 kts | 316° |
| 2026-04-25 02:31 | 51.80384 | 104.22483 | 31734 ft | 410 kts | 316° |
| 2026-04-25 02:31 | 51.82448 | 104.19291 | 31920 ft | 411 kts | 316° |
| 2026-04-25 02:32 | 51.84516 | 104.16092 | 32107 ft | 412 kts | 315° |
| 2026-04-25 02:32 | 51.86592 | 104.12876 | 32297 ft | 414 kts | 315° |
| 2026-04-25 02:32 | 51.88671 | 104.09653 | 32489 ft | 414 kts | 315° |
| 2026-04-25 02:32 | 51.90755 | 104.06418 | 32683 ft | 416 kts | 315° |
| 2026-04-25 02:33 | 51.92842 | 104.03173 | 32903 ft | 417 kts | 315° |
| 2026-04-25 02:33 | 51.94939 | 103.99909 | 33009 ft | 419 kts | 315° |
| 2026-04-25 02:33 | 51.97045 | 103.96624 | 33188 ft | 420 kts | 315° |
| 2026-04-25 02:33 | 51.99134 | 103.93301 | 33381 ft | 421 kts | 315° |
| 2026-04-25 02:34 | 52.01209 | 103.89945 | 33549 ft | 422 kts | 314° |
| 2026-04-25 02:34 | 52.03285 | 103.86567 | 33689 ft | 423 kts | 314° |
| 2026-04-25 02:34 | 52.05365 | 103.83180 | 33855 ft | 423 kts | 314° |
| 2026-04-25 02:34 | 52.07443 | 103.79799 | 34062 ft | 423 kts | 314° |
| 2026-04-25 02:35 | 52.09527 | 103.76412 | 34159 ft | 425 kts | 314° |
| 2026-04-25 02:35 | 52.13674 | 103.69673 | 34165 ft | 424 kts | 314° |
| 2026-04-25 02:36 | 52.17849 | 103.62879 | 34171 ft | 424 kts | 314° |
| 2026-04-25 02:36 | 52.22019 | 103.56074 | 34170 ft | 424 kts | 314° |
| 2026-04-25 02:37 | 52.26186 | 103.49250 | 34177 ft | 425 kts | 314° |
| 2026-04-25 02:37 | 52.30356 | 103.42403 | 34170 ft | 424 kts | 314° |
| 2026-04-25 02:38 | 52.34498 | 103.35583 | 34180 ft | 422 kts | 314° |
| 2026-04-25 02:38 | 52.38632 | 103.28759 | 34183 ft | 422 kts | 314° |
| 2026-04-25 02:39 | 52.42746 | 103.21908 | 34178 ft | 422 kts | 312° |
| 2026-04-25 02:39 | 52.46299 | 103.14272 | 34176 ft | 422 kts | 305° |
| 2026-04-25 02:40 | 52.49559 | 103.06265 | 34182 ft | 422 kts | 304° |
| 2026-04-25 02:40 | 52.52755 | 102.98204 | 34183 ft | 420 kts | 304° |
| 2026-04-25 02:41 | 52.55933 | 102.90160 | 34182 ft | 421 kts | 304° |
| 2026-04-25 02:41 | 52.59129 | 102.82077 | 34183 ft | 422 kts | 304° |
| 2026-04-25 02:42 | 52.62330 | 102.73968 | 34188 ft | 422 kts | 304° |
| 2026-04-25 02:42 | 52.65525 | 102.65850 | 34192 ft | 423 kts | 304° |
| 2026-04-25 02:43 | 52.68715 | 102.57720 | 34183 ft | 422 kts | 303° |
| 2026-04-25 02:43 | 52.71892 | 102.49596 | 34189 ft | 421 kts | 303° |
| 2026-04-25 02:44 | 52.75062 | 102.41463 | 34192 ft | 421 kts | 303° |
| 2026-04-25 02:44 | 52.78227 | 102.33315 | 34195 ft | 422 kts | 303° |
| 2026-04-25 02:45 | 52.81367 | 102.25208 | 34191 ft | 422 kts | 303° |
| 2026-04-25 02:45 | 52.84522 | 102.17035 | 34176 ft | 421 kts | 303° |
| 2026-04-25 02:46 | 52.87661 | 102.08875 | 34197 ft | 420 kts | 303° |
| 2026-04-25 02:46 | 52.90796 | 102.00705 | 34200 ft | 423 kts | 303° |
| 2026-04-25 02:47 | 52.93948 | 101.92457 | 34195 ft | 424 kts | 303° |
| 2026-04-25 02:47 | 52.97094 | 101.84202 | 34195 ft | 423 kts | 303° |
| 2026-04-25 02:48 | 53.00235 | 101.75932 | 34187 ft | 424 kts | 303° |
| 2026-04-25 02:48 | 53.03368 | 101.67656 | 34189 ft | 422 kts | 303° |
| 2026-04-25 02:49 | 53.06483 | 101.59399 | 34186 ft | 421 kts | 302° |
| 2026-04-25 02:49 | 53.09589 | 101.51139 | 34187 ft | 421 kts | 302° |
| 2026-04-25 02:50 | 53.12692 | 101.42862 | 34182 ft | 421 kts | 302° |
| 2026-04-25 02:50 | 53.15788 | 101.34572 | 34188 ft | 422 kts | 302° |
| 2026-04-25 02:51 | 53.18878 | 101.26269 | 34177 ft | 422 kts | 302° |
| 2026-04-25 02:51 | 53.21960 | 101.17970 | 34181 ft | 421 kts | 302° |
| 2026-04-25 02:52 | 53.25041 | 101.09644 | 34174 ft | 423 kts | 302° |
| 2026-04-25 02:52 | 53.28130 | 101.01267 | 34177 ft | 424 kts | 302° |
| 2026-04-25 02:53 | 53.31214 | 100.92876 | 34162 ft | 424 kts | 302° |
| 2026-04-25 02:53 | 53.33773 | 100.85892 | 34164 ft | 424 kts | 302° |
| 2026-04-25 02:54 | 53.37336 | 100.76129 | 34162 ft | 422 kts | 302° |
| 2026-04-25 02:54 | 53.40387 | 100.67743 | 34162 ft | 421 kts | 302° |
| 2026-04-25 02:55 | 53.42939 | 100.60704 | 34163 ft | 422 kts | 301° |
| 2026-04-25 02:55 | 53.45982 | 100.52292 | 34153 ft | 422 kts | 301° |
| 2026-04-25 02:56 | 53.48997 | 100.43921 | 34165 ft | 422 kts | 301° |
| 2026-04-25 02:56 | 53.52026 | 100.35485 | 34151 ft | 421 kts | 301° |
| 2026-04-25 02:57 | 53.55035 | 100.27079 | 34164 ft | 419 kts | 301° |
| 2026-04-25 02:57 | 53.58035 | 100.18669 | 34162 ft | 419 kts | 301° |
| 2026-04-25 02:58 | 53.61025 | 100.10256 | 34159 ft | 418 kts | 301° |
| 2026-04-25 02:58 | 53.64008 | 100.01836 | 34167 ft | 419 kts | 301° |
| 2026-04-25 02:59 | 53.66986 | 99.93404 | 34162 ft | 418 kts | 301° |
| 2026-04-25 02:59 | 53.69955 | 99.84952 | 34163 ft | 419 kts | 301° |
| 2026-04-25 03:00 | 53.72923 | 99.76502 | 34156 ft | 419 kts | 301° |
| 2026-04-25 03:00 | 53.75886 | 99.68029 | 34157 ft | 419 kts | 301° |
| 2026-04-25 03:01 | 53.78839 | 99.59546 | 34149 ft | 418 kts | 301° |
| 2026-04-25 03:01 | 53.81786 | 99.51055 | 34153 ft | 419 kts | 301° |
| 2026-04-25 03:02 | 53.84710 | 99.42602 | 34144 ft | 418 kts | 300° |
| 2026-04-25 03:02 | 53.87657 | 99.34052 | 34152 ft | 417 kts | 300° |
| 2026-04-25 03:03 | 53.90580 | 99.25545 | 34147 ft | 419 kts | 300° |
| 2026-04-25 03:03 | 53.93493 | 99.17036 | 34150 ft | 420 kts | 300° |
| 2026-04-25 03:04 | 53.96421 | 99.08453 | 34147 ft | 420 kts | 300° |
| 2026-04-25 03:04 | 53.99346 | 98.99850 | 34156 ft | 421 kts | 300° |
| 2026-04-25 03:05 | 54.03726 | 98.86910 | 34150 ft | 422 kts | 300° |
| 2026-04-25 03:05 | 54.06648 | 98.78245 | 34156 ft | 422 kts | 300° |
| 2026-04-25 03:06 | 54.09560 | 98.69570 | 34156 ft | 422 kts | 300° |
| 2026-04-25 03:06 | 54.12465 | 98.60881 | 34150 ft | 422 kts | 300° |
| 2026-04-25 03:07 | 54.15365 | 98.52185 | 34150 ft | 422 kts | 300° |
| 2026-04-25 03:07 | 54.18264 | 98.43464 | 34144 ft | 423 kts | 300° |
| 2026-04-25 03:08 | 54.21159 | 98.34721 | 34171 ft | 423 kts | 299° |
| 2026-04-25 03:08 | 54.24066 | 98.25909 | 34139 ft | 427 kts | 299° |
| 2026-04-25 03:09 | 54.26983 | 98.17035 | 34136 ft | 428 kts | 299° |
| 2026-04-25 03:09 | 54.29892 | 98.08153 | 34140 ft | 428 kts | 299° |
| 2026-04-25 03:10 | 54.32795 | 97.99258 | 34124 ft | 428 kts | 299° |
| 2026-04-25 03:10 | 54.35697 | 97.90352 | 34135 ft | 428 kts | 299° |
| 2026-04-25 03:11 | 54.38598 | 97.81454 | 34137 ft | 428 kts | 299° |
| 2026-04-25 03:11 | 54.41495 | 97.72529 | 34137 ft | 428 kts | 299° |
| 2026-04-25 03:12 | 54.44364 | 97.63660 | 34133 ft | 428 kts | 299° |
| 2026-04-25 03:12 | 54.47246 | 97.54719 | 34132 ft | 428 kts | 299° |
| 2026-04-25 03:13 | 54.50118 | 97.45772 | 34128 ft | 426 kts | 298° |
| 2026-04-25 03:13 | 54.52976 | 97.36836 | 34167 ft | 426 kts | 298° |
| 2026-04-25 03:14 | 54.55831 | 97.27871 | 34120 ft | 428 kts | 298° |
| 2026-04-25 03:14 | 54.58692 | 97.18862 | 34119 ft | 429 kts | 298° |
| 2026-04-25 03:15 | 54.61549 | 97.09840 | 34121 ft | 428 kts | 298° |
| 2026-04-25 03:15 | 54.64395 | 97.00812 | 34108 ft | 428 kts | 298° |
| 2026-04-25 03:16 | 54.67218 | 96.91798 | 34114 ft | 425 kts | 298° |
| 2026-04-25 03:16 | 54.70027 | 96.82814 | 34117 ft | 425 kts | 298° |
| 2026-04-25 03:17 | 54.72834 | 96.73819 | 34122 ft | 425 kts | 298° |
| 2026-04-25 03:17 | 54.75633 | 96.64818 | 34132 ft | 424 kts | 298° |
| 2026-04-25 03:18 | 54.78355 | 96.55747 | 34117 ft | 424 kts | 297° |
| 2026-04-25 03:18 | 54.81035 | 96.46631 | 34119 ft | 424 kts | 297° |
| 2026-04-25 03:19 | 54.83708 | 96.37538 | 34124 ft | 423 kts | 297° |
| 2026-04-25 03:19 | 54.86380 | 96.28444 | 34127 ft | 424 kts | 297° |
| 2026-04-25 03:20 | 54.89056 | 96.19320 | 34125 ft | 424 kts | 297° |
| 2026-04-25 03:20 | 54.91728 | 96.10186 | 34121 ft | 424 kts | 297° |
| 2026-04-25 03:21 | 54.94389 | 96.01038 | 34126 ft | 424 kts | 297° |
| 2026-04-25 03:21 | 54.97031 | 95.91932 | 34121 ft | 424 kts | 297° |
| 2026-04-25 03:22 | 54.99680 | 95.82762 | 34121 ft | 424 kts | 297° |
| 2026-04-25 03:22 | 55.02321 | 95.73577 | 34121 ft | 424 kts | 297° |
| 2026-04-25 03:23 | 55.04956 | 95.64382 | 34127 ft | 424 kts | 296° |
| 2026-04-25 03:23 | 55.07584 | 95.55166 | 34127 ft | 424 kts | 296° |
| 2026-04-25 03:24 | 55.10207 | 95.45942 | 34117 ft | 424 kts | 296° |
| 2026-04-25 03:24 | 55.12813 | 95.36741 | 34126 ft | 422 kts | 296° |
| 2026-04-25 03:25 | 55.15405 | 95.27554 | 34173 ft | 422 kts | 296° |
| 2026-04-25 03:25 | 55.17997 | 95.18326 | 34131 ft | 424 kts | 296° |
| 2026-04-25 03:26 | 55.20588 | 95.09061 | 34129 ft | 424 kts | 296° |
| 2026-04-25 03:26 | 55.23173 | 94.99786 | 34129 ft | 424 kts | 296° |
| 2026-04-25 03:27 | 55.25752 | 94.90494 | 34128 ft | 424 kts | 296° |
| 2026-04-25 03:27 | 55.28450 | 94.81306 | 34124 ft | 424 kts | 300° |
| 2026-04-25 03:28 | 55.31484 | 94.72439 | 34124 ft | 424 kts | 301° |
| 2026-04-25 03:28 | 55.34538 | 94.63586 | 34117 ft | 424 kts | 301° |
| 2026-04-25 03:29 | 55.37534 | 94.54666 | 34117 ft | 424 kts | 300° |
| 2026-04-25 03:29 | 55.40495 | 94.45701 | 34118 ft | 424 kts | 300° |
| 2026-04-25 03:30 | 55.43417 | 94.36800 | 34112 ft | 421 kts | 300° |
| 2026-04-25 03:30 | 55.46338 | 94.27873 | 34117 ft | 420 kts | 300° |
| 2026-04-25 03:31 | 55.49249 | 94.18954 | 34107 ft | 420 kts | 300° |
| 2026-04-25 03:31 | 55.52154 | 94.10025 | 34104 ft | 419 kts | 300° |
| 2026-04-25 03:32 | 55.55051 | 94.01087 | 34103 ft | 419 kts | 300° |
| 2026-04-25 03:32 | 55.57940 | 93.92140 | 34102 ft | 419 kts | 300° |
| 2026-04-25 03:33 | 55.60818 | 93.83192 | 34101 ft | 417 kts | 300° |
| 2026-04-25 03:33 | 55.63674 | 93.74275 | 34097 ft | 416 kts | 299° |
| 2026-04-25 03:34 | 55.66522 | 93.65356 | 34096 ft | 416 kts | 299° |
| 2026-04-25 03:34 | 55.69363 | 93.56426 | 34091 ft | 416 kts | 299° |
| 2026-04-25 03:35 | 55.72199 | 93.47477 | 34089 ft | 416 kts | 299° |
| 2026-04-25 03:35 | 55.75026 | 93.38521 | 34091 ft | 416 kts | 299° |
| 2026-04-25 03:36 | 55.77812 | 93.29515 | 34076 ft | 415 kts | 298° |
| 2026-04-25 03:36 | 55.80557 | 93.20485 | 34076 ft | 415 kts | 298° |
| 2026-04-25 03:37 | 55.83299 | 93.11453 | 34081 ft | 415 kts | 298° |
| 2026-04-25 03:37 | 55.86042 | 93.02412 | 34067 ft | 415 kts | 298° |
| 2026-04-25 03:38 | 55.88779 | 92.93367 | 34069 ft | 415 kts | 298° |
| 2026-04-25 03:38 | 55.91506 | 92.84311 | 34066 ft | 415 kts | 298° |
| 2026-04-25 03:39 | 55.94229 | 92.75247 | 34057 ft | 414 kts | 298° |
| 2026-04-25 03:39 | 55.96941 | 92.66180 | 34054 ft | 414 kts | 298° |
| 2026-04-25 03:40 | 55.99641 | 92.57113 | 34042 ft | 414 kts | 298° |
| 2026-04-25 03:40 | 56.02319 | 92.48089 | 34096 ft | 414 kts | 297° |
| 2026-04-25 03:41 | 56.05030 | 92.38967 | 34049 ft | 417 kts | 297° |
| 2026-04-25 03:41 | 56.07736 | 92.29795 | 34051 ft | 417 kts | 297° |
| 2026-04-25 03:42 | 56.10438 | 92.20596 | 34047 ft | 417 kts | 297° |
| 2026-04-25 03:42 | 56.13132 | 92.11395 | 34053 ft | 417 kts | 297° |
| 2026-04-25 03:43 | 56.15819 | 92.02182 | 34059 ft | 417 kts | 297° |
| 2026-04-25 03:43 | 56.18046 | 91.94516 | 34060 ft | 417 kts | 297° |
| 2026-04-25 03:44 | 56.20721 | 91.85281 | 34059 ft | 417 kts | 297° |
| 2026-04-25 03:44 | 56.23390 | 91.76025 | 34067 ft | 417 kts | 297° |
| 2026-04-25 03:45 | 56.26051 | 91.66757 | 34067 ft | 417 kts | 297° |
| 2026-04-25 03:45 | 56.28705 | 91.57478 | 34072 ft | 417 kts | 297° |
| 2026-04-25 03:46 | 56.31355 | 91.48183 | 34081 ft | 418 kts | 297° |
| 2026-04-25 03:46 | 56.34008 | 91.38836 | 34065 ft | 420 kts | 297° |
| 2026-04-25 03:47 | 56.36658 | 91.29458 | 34067 ft | 420 kts | 297° |
| 2026-04-25 03:47 | 56.39304 | 91.20059 | 34066 ft | 420 kts | 297° |
| 2026-04-25 03:48 | 56.41938 | 91.10662 | 34066 ft | 419 kts | 297° |
| 2026-04-25 03:48 | 56.44563 | 91.01262 | 34073 ft | 418 kts | 297° |
| 2026-04-25 03:49 | 56.47177 | 90.91862 | 34077 ft | 418 kts | 297° |
| 2026-04-25 03:49 | 56.49783 | 90.82454 | 34078 ft | 418 kts | 297° |
| 2026-04-25 03:50 | 56.52384 | 90.73022 | 34072 ft | 418 kts | 297° |
| 2026-04-25 03:50 | 56.54976 | 90.63584 | 34078 ft | 418 kts | 297° |
| 2026-04-25 03:51 | 56.57562 | 90.54129 | 34073 ft | 418 kts | 297° |
| 2026-04-25 03:51 | 56.60136 | 90.44680 | 34088 ft | 418 kts | 297° |
| 2026-04-25 03:52 | 56.62686 | 90.35282 | 34078 ft | 418 kts | 297° |
| 2026-04-25 03:52 | 56.65246 | 90.25808 | 34079 ft | 418 kts | 297° |
| 2026-04-25 03:53 | 56.67798 | 90.16319 | 34087 ft | 418 kts | 296° |
| 2026-04-25 03:53 | 56.70343 | 90.06821 | 34087 ft | 418 kts | 296° |
| 2026-04-25 03:54 | 56.72880 | 89.97311 | 34071 ft | 418 kts | 296° |
| 2026-04-25 03:54 | 56.75405 | 89.87805 | 34085 ft | 416 kts | 296° |
| 2026-04-25 03:55 | 56.77920 | 89.78299 | 34083 ft | 416 kts | 296° |
| 2026-04-25 03:55 | 56.80426 | 89.68786 | 34083 ft | 416 kts | 296° |
| 2026-04-25 03:56 | 56.82928 | 89.59250 | 34086 ft | 416 kts | 296° |
| 2026-04-25 03:56 | 56.85422 | 89.49703 | 34086 ft | 417 kts | 296° |
| 2026-04-25 03:57 | 56.87916 | 89.40116 | 34086 ft | 418 kts | 296° |
| 2026-04-25 03:57 | 56.90405 | 89.30503 | 34086 ft | 418 kts | 296° |
| 2026-04-25 03:58 | 56.92887 | 89.20877 | 34089 ft | 418 kts | 296° |
| 2026-04-25 03:58 | 56.95363 | 89.11236 | 34086 ft | 418 kts | 296° |
| 2026-04-25 03:59 | 56.97831 | 89.01579 | 34085 ft | 418 kts | 296° |
| 2026-04-25 03:59 | 57.00292 | 88.91912 | 34086 ft | 418 kts | 296° |
| 2026-04-25 04:00 | 57.02746 | 88.82230 | 34077 ft | 418 kts | 296° |
| 2026-04-25 04:00 | 57.05186 | 88.72559 | 34087 ft | 416 kts | 296° |
| 2026-04-25 04:01 | 57.07610 | 88.62909 | 34085 ft | 416 kts | 296° |
| 2026-04-25 04:01 | 57.10030 | 88.53235 | 34085 ft | 416 kts | 296° |
| 2026-04-25 04:02 | 57.12448 | 88.43530 | 34086 ft | 418 kts | 296° |
| 2026-04-25 04:02 | 57.14866 | 88.33779 | 34088 ft | 419 kts | 296° |
| 2026-04-25 04:03 | 57.17281 | 88.24014 | 34089 ft | 419 kts | 295° |
| 2026-04-25 04:03 | 57.19677 | 88.14243 | 34087 ft | 417 kts | 295° |
| 2026-04-25 04:04 | 57.22055 | 88.04496 | 34087 ft | 416 kts | 295° |
| 2026-04-25 04:04 | 57.24425 | 87.94746 | 34084 ft | 416 kts | 295° |
| 2026-04-25 04:05 | 57.26791 | 87.84982 | 34087 ft | 416 kts | 295° |
| 2026-04-25 04:05 | 57.29148 | 87.75207 | 34089 ft | 416 kts | 295° |
| 2026-04-25 04:06 | 57.31483 | 87.65480 | 34088 ft | 417 kts | 295° |
| 2026-04-25 04:06 | 57.33823 | 87.55686 | 34081 ft | 415 kts | 295° |
| 2026-04-25 04:07 | 57.36146 | 87.45915 | 34100 ft | 414 kts | 295° |
| 2026-04-25 04:07 | 57.38466 | 87.36123 | 34084 ft | 415 kts | 295° |
| 2026-04-25 04:08 | 57.40779 | 87.26310 | 34086 ft | 415 kts | 295° |
| 2026-04-25 04:08 | 57.43085 | 87.16483 | 34084 ft | 415 kts | 295° |
| 2026-04-25 04:09 | 57.45382 | 87.06650 | 34084 ft | 415 kts | 295° |
| 2026-04-25 04:09 | 57.47671 | 86.96801 | 34074 ft | 415 kts | 295° |
| 2026-04-25 04:10 | 57.49946 | 86.86975 | 34076 ft | 413 kts | 295° |
| 2026-04-25 04:10 | 57.52208 | 86.77156 | 34095 ft | 413 kts | 295° |
| 2026-04-25 04:11 | 57.55585 | 86.62410 | 34072 ft | 413 kts | 294° |
| 2026-04-25 04:12 | 57.57828 | 86.52560 | 34074 ft | 413 kts | 294° |
| 2026-04-25 04:12 | 57.60062 | 86.42705 | 34088 ft | 413 kts | 294° |
| 2026-04-25 04:13 | 57.62276 | 86.32893 | 34084 ft | 413 kts | 294° |
| 2026-04-25 04:13 | 57.64492 | 86.23024 | 34088 ft | 412 kts | 294° |
| 2026-04-25 04:14 | 57.66696 | 86.13160 | 34074 ft | 412 kts | 294° |
| 2026-04-25 04:14 | 57.68894 | 86.03279 | 34064 ft | 412 kts | 294° |
| 2026-04-25 04:15 | 57.71083 | 85.93395 | 34075 ft | 412 kts | 294° |
| 2026-04-25 04:15 | 57.73266 | 85.83490 | 34081 ft | 412 kts | 294° |
| 2026-04-25 04:16 | 57.75440 | 85.73576 | 34050 ft | 412 kts | 294° |
| 2026-04-25 04:16 | 57.77607 | 85.63650 | 34071 ft | 411 kts | 293° |
| 2026-04-25 04:17 | 57.79765 | 85.53717 | 34073 ft | 411 kts | 293° |
| 2026-04-25 04:17 | 57.81915 | 85.43773 | 34070 ft | 412 kts | 293° |
| 2026-04-25 04:18 | 57.84058 | 85.33813 | 34082 ft | 412 kts | 293° |
| 2026-04-25 04:18 | 57.86192 | 85.23846 | 34059 ft | 411 kts | 293° |
| 2026-04-25 04:19 | 57.88316 | 85.13875 | 34058 ft | 411 kts | 293° |
| 2026-04-25 04:19 | 57.90433 | 85.03891 | 34063 ft | 411 kts | 293° |
| 2026-04-25 04:20 | 57.92541 | 84.93900 | 34057 ft | 411 kts | 292° |
| 2026-04-25 04:20 | 57.94641 | 84.83897 | 34064 ft | 411 kts | 292° |
| 2026-04-25 04:21 | 57.96733 | 84.73887 | 34065 ft | 411 kts | 292° |
| 2026-04-25 04:21 | 57.98819 | 84.63858 | 34064 ft | 411 kts | 292° |
| 2026-04-25 04:22 | 58.00895 | 84.53825 | 34058 ft | 411 kts | 292° |
| 2026-04-25 04:22 | 58.02951 | 84.43835 | 34056 ft | 412 kts | 292° |
| 2026-04-25 04:23 | 58.05017 | 84.33751 | 34066 ft | 412 kts | 292° |
| 2026-04-25 04:23 | 58.07076 | 84.23648 | 34079 ft | 412 kts | 292° |
| 2026-04-25 04:24 | 58.09122 | 84.13555 | 34071 ft | 410 kts | 292° |
| 2026-04-25 04:24 | 58.11154 | 84.03482 | 34073 ft | 410 kts | 292° |
| 2026-04-25 04:25 | 58.13179 | 83.93398 | 34071 ft | 410 kts | 292° |
| 2026-04-25 04:25 | 58.15194 | 83.83309 | 34043 ft | 410 kts | 291° |
| 2026-04-25 04:26 | 58.17214 | 83.73153 | 34072 ft | 415 kts | 291° |
| 2026-04-25 04:26 | 58.19239 | 83.62908 | 34072 ft | 415 kts | 291° |
| 2026-04-25 04:27 | 58.21258 | 83.52637 | 34066 ft | 416 kts | 291° |
| 2026-04-25 04:27 | 58.23268 | 83.42363 | 34068 ft | 416 kts | 291° |
| 2026-04-25 04:28 | 58.25272 | 83.32066 | 34067 ft | 416 kts | 291° |
| 2026-04-25 04:28 | 58.27268 | 83.21758 | 34076 ft | 416 kts | 291° |
| 2026-04-25 04:29 | 58.29254 | 83.11446 | 34077 ft | 416 kts | 291° |
| 2026-04-25 04:29 | 58.31231 | 83.01126 | 34071 ft | 415 kts | 291° |
| 2026-04-25 04:30 | 58.33002 | 82.90687 | 34074 ft | 415 kts | 286° |
| 2026-04-25 04:30 | 58.34369 | 82.80086 | 34074 ft | 415 kts | 285° |
| 2026-04-25 04:31 | 58.35673 | 82.69370 | 34070 ft | 416 kts | 284° |
| 2026-04-25 04:31 | 58.36962 | 82.58634 | 34072 ft | 416 kts | 284° |
| 2026-04-25 04:32 | 58.38249 | 82.47886 | 34065 ft | 417 kts | 284° |
| 2026-04-25 04:32 | 58.39318 | 82.38916 | 34064 ft | 418 kts | 284° |
| 2026-04-25 04:33 | 58.40599 | 82.28107 | 34071 ft | 418 kts | 284° |
| 2026-04-25 04:33 | 58.41870 | 82.17290 | 34061 ft | 418 kts | 284° |
| 2026-04-25 04:34 | 58.43133 | 82.06458 | 34063 ft | 418 kts | 284° |
| 2026-04-25 04:34 | 58.44386 | 81.95620 | 34060 ft | 418 kts | 284° |
| 2026-04-25 04:35 | 58.45631 | 81.84770 | 34057 ft | 419 kts | 283° |
| 2026-04-25 04:35 | 58.46869 | 81.73902 | 34053 ft | 419 kts | 283° |
| 2026-04-25 04:36 | 58.48097 | 81.63023 | 34061 ft | 419 kts | 283° |
| 2026-04-25 04:36 | 58.49316 | 81.52136 | 34054 ft | 418 kts | 283° |
| 2026-04-25 04:37 | 58.50523 | 81.41263 | 34054 ft | 418 kts | 283° |
| 2026-04-25 04:37 | 58.51722 | 81.30377 | 34051 ft | 418 kts | 283° |
| 2026-04-25 04:38 | 58.52911 | 81.19490 | 34032 ft | 418 kts | 283° |
| 2026-04-25 04:38 | 58.54091 | 81.08594 | 34047 ft | 418 kts | 283° |
| 2026-04-25 04:39 | 58.55260 | 80.97697 | 34041 ft | 418 kts | 283° |
| 2026-04-25 04:39 | 58.56421 | 80.86792 | 34041 ft | 418 kts | 283° |
| 2026-04-25 04:40 | 58.57571 | 80.75887 | 34041 ft | 418 kts | 282° |
| 2026-04-25 04:40 | 58.58714 | 80.64965 | 34037 ft | 418 kts | 282° |
| 2026-04-25 04:41 | 58.59847 | 80.54041 | 34046 ft | 418 kts | 282° |
| 2026-04-25 04:41 | 58.60969 | 80.43125 | 34029 ft | 417 kts | 282° |
| 2026-04-25 04:42 | 58.62081 | 80.32209 | 34033 ft | 417 kts | 282° |
| 2026-04-25 04:42 | 58.63184 | 80.21286 | 34031 ft | 417 kts | 282° |
| 2026-04-25 04:43 | 58.64276 | 80.10363 | 34017 ft | 417 kts | 282° |
| 2026-04-25 04:43 | 58.65354 | 79.99499 | 34039 ft | 417 kts | 281° |
| 2026-04-25 04:44 | 58.66425 | 79.88591 | 34021 ft | 414 kts | 281° |
| 2026-04-25 04:44 | 58.67479 | 79.77756 | 34022 ft | 411 kts | 281° |
| 2026-04-25 04:45 | 58.68632 | 79.67001 | 34023 ft | 411 kts | 284° |
| 2026-04-25 04:45 | 58.70129 | 79.56399 | 34013 ft | 411 kts | 285° |
| 2026-04-25 04:46 | 58.71678 | 79.45814 | 34012 ft | 411 kts | 285° |
| 2026-04-25 04:46 | 58.73227 | 79.35233 | 34010 ft | 411 kts | 285° |
| 2026-04-25 04:47 | 58.74764 | 79.24633 | 34007 ft | 411 kts | 285° |
| 2026-04-25 04:47 | 58.76281 | 79.14063 | 34011 ft | 407 kts | 284° |
| 2026-04-25 04:48 | 58.77778 | 79.03561 | 34000 ft | 406 kts | 284° |
| 2026-04-25 04:48 | 58.79264 | 78.93068 | 34002 ft | 406 kts | 284° |
| 2026-04-25 04:49 | 58.80741 | 78.82571 | 34000 ft | 406 kts | 284° |
| 2026-04-25 04:49 | 58.82210 | 78.72060 | 33990 ft | 405 kts | 284° |
| 2026-04-25 04:50 | 58.83670 | 78.61545 | 33993 ft | 405 kts | 284° |
| 2026-04-25 04:50 | 58.85112 | 78.51099 | 33988 ft | 406 kts | 283° |
| 2026-04-25 04:51 | 58.86557 | 78.40543 | 33984 ft | 407 kts | 283° |
| 2026-04-25 04:51 | 58.87996 | 78.29973 | 33984 ft | 407 kts | 283° |
| 2026-04-25 04:52 | 58.89426 | 78.19399 | 33976 ft | 407 kts | 282° |
| 2026-04-25 04:52 | 58.90847 | 78.08810 | 33976 ft | 407 kts | 282° |
| 2026-04-25 04:53 | 58.92259 | 77.98214 | 33966 ft | 407 kts | 282° |
| 2026-04-25 04:53 | 58.93662 | 77.87608 | 33964 ft | 407 kts | 282° |
| 2026-04-25 04:54 | 58.95062 | 77.76954 | 33965 ft | 411 kts | 282° |
| 2026-04-25 04:54 | 58.96466 | 77.66197 | 33949 ft | 412 kts | 282° |
| 2026-04-25 04:55 | 58.97863 | 77.55417 | 33948 ft | 412 kts | 281° |
| 2026-04-25 04:55 | 58.99252 | 77.44626 | 33957 ft | 413 kts | 281° |
| 2026-04-25 04:56 | 59.00624 | 77.33882 | 33939 ft | 408 kts | 281° |
| 2026-04-25 04:56 | 59.01977 | 77.23216 | 33943 ft | 407 kts | 281° |
| 2026-04-25 04:57 | 59.03319 | 77.12549 | 33936 ft | 407 kts | 281° |
| 2026-04-25 04:57 | 59.04655 | 77.01856 | 33936 ft | 408 kts | 281° |
| 2026-04-25 04:58 | 59.05983 | 76.91146 | 33932 ft | 408 kts | 280° |
| 2026-04-25 04:58 | 59.07294 | 76.80490 | 33934 ft | 408 kts | 280° |
| 2026-04-25 04:59 | 59.08610 | 76.69763 | 33931 ft | 408 kts | 280° |
| 2026-04-25 04:59 | 59.09911 | 76.59024 | 33917 ft | 408 kts | 280° |
| 2026-04-25 05:00 | 59.11201 | 76.48276 | 33922 ft | 408 kts | 280° |
| 2026-04-25 05:00 | 59.12493 | 76.37525 | 33928 ft | 408 kts | 280° |
| 2026-04-25 05:01 | 59.13775 | 76.26761 | 33916 ft | 408 kts | 280° |
| 2026-04-25 05:01 | 59.15049 | 76.15989 | 33947 ft | 408 kts | 279° |
| 2026-04-25 05:02 | 59.16307 | 76.05283 | 33910 ft | 403 kts | 279° |
| 2026-04-25 05:02 | 59.17548 | 75.94635 | 33901 ft | 402 kts | 279° |
| 2026-04-25 05:03 | 59.18783 | 75.83989 | 33896 ft | 402 kts | 279° |
| 2026-04-25 05:03 | 59.20000 | 75.73336 | 33894 ft | 402 kts | 278° |
| 2026-04-25 05:04 | 59.21205 | 75.62660 | 33892 ft | 403 kts | 278° |
| 2026-04-25 05:04 | 59.22403 | 75.51976 | 33892 ft | 403 kts | 278° |
| 2026-04-25 05:05 | 59.23596 | 75.41281 | 33887 ft | 403 kts | 278° |
| 2026-04-25 05:05 | 59.24779 | 75.30584 | 33886 ft | 403 kts | 278° |
| 2026-04-25 05:06 | 59.25947 | 75.19942 | 33884 ft | 403 kts | 278° |
| 2026-04-25 05:06 | 59.27121 | 75.09151 | 33879 ft | 403 kts | 278° |
| 2026-04-25 05:07 | 59.28272 | 74.98494 | 33882 ft | 404 kts | 277° |
| 2026-04-25 05:07 | 59.29431 | 74.87662 | 33910 ft | 404 kts | 277° |
| 2026-04-25 05:08 | 59.30572 | 74.76937 | 33872 ft | 401 kts | 276° |
| 2026-04-25 05:08 | 59.31687 | 74.66344 | 33873 ft | 400 kts | 276° |
| 2026-04-25 05:09 | 59.32801 | 74.55680 | 33864 ft | 400 kts | 276° |
| 2026-04-25 05:09 | 59.34534 | 74.45222 | 33865 ft | 408 kts | 286° |
| 2026-04-25 05:10 | 59.36827 | 74.35015 | 33863 ft | 410 kts | 287° |
| 2026-04-25 05:10 | 59.39210 | 74.24832 | 33857 ft | 412 kts | 287° |
| 2026-04-25 05:11 | 59.41602 | 74.14570 | 33859 ft | 414 kts | 287° |
| 2026-04-25 05:11 | 59.43978 | 74.04275 | 33857 ft | 414 kts | 287° |
| 2026-04-25 05:12 | 59.47514 | 73.88809 | 33869 ft | 413 kts | 286° |
| 2026-04-25 05:12 | 59.49854 | 73.78520 | 33844 ft | 410 kts | 286° |
| 2026-04-25 05:13 | 59.52172 | 73.68259 | 33838 ft | 410 kts | 286° |
| 2026-04-25 05:13 | 59.54481 | 73.57988 | 33837 ft | 410 kts | 286° |
| 2026-04-25 05:14 | 59.56785 | 73.47694 | 33838 ft | 412 kts | 285° |
| 2026-04-25 05:15 | 59.60248 | 73.32119 | 33834 ft | 414 kts | 285° |
| 2026-04-25 05:15 | 59.62552 | 73.21712 | 33834 ft | 414 kts | 285° |
| 2026-04-25 05:16 | 59.64848 | 73.11283 | 33833 ft | 414 kts | 285° |
| 2026-04-25 05:16 | 59.67136 | 73.00831 | 33813 ft | 415 kts | 285° |
| 2026-04-25 05:17 | 59.69427 | 72.90313 | 33816 ft | 416 kts | 285° |
| 2026-04-25 05:17 | 59.71713 | 72.79774 | 33818 ft | 416 kts | 285° |
| 2026-04-25 05:18 | 59.73975 | 72.69291 | 33817 ft | 417 kts | 284° |
| 2026-04-25 05:18 | 59.76261 | 72.58615 | 33814 ft | 423 kts | 284° |
| 2026-04-25 05:19 | 59.78557 | 72.47867 | 33822 ft | 423 kts | 284° |
| 2026-04-25 05:19 | 59.80846 | 72.37101 | 33808 ft | 423 kts | 284° |
| 2026-04-25 05:20 | 59.83124 | 72.26327 | 33811 ft | 423 kts | 284° |
| 2026-04-25 05:20 | 59.85011 | 72.17351 | 33823 ft | 424 kts | 284° |
| 2026-04-25 05:21 | 59.87669 | 72.04629 | 33805 ft | 427 kts | 284° |
| 2026-04-25 05:21 | 59.89557 | 71.95557 | 33804 ft | 427 kts | 284° |
| 2026-04-25 05:22 | 59.91825 | 71.84608 | 33806 ft | 429 kts | 284° |
| 2026-04-25 05:22 | 59.94104 | 71.73524 | 33796 ft | 433 kts | 284° |
| 2026-04-25 05:23 | 59.96385 | 71.62395 | 33798 ft | 433 kts | 284° |
| 2026-04-25 05:23 | 59.98657 | 71.51251 | 33798 ft | 433 kts | 284° |
| 2026-04-25 05:24 | 60.00917 | 71.40092 | 33795 ft | 433 kts | 284° |
| 2026-04-25 05:24 | 60.03170 | 71.28901 | 33796 ft | 435 kts | 284° |
| 2026-04-25 05:25 | 60.05430 | 71.17604 | 33795 ft | 438 kts | 284° |
| 2026-04-25 05:25 | 60.07688 | 71.06270 | 33799 ft | 439 kts | 284° |
| 2026-04-25 05:26 | 60.09948 | 70.94856 | 33787 ft | 443 kts | 284° |
| 2026-04-25 05:26 | 60.12212 | 70.83359 | 33785 ft | 443 kts | 284° |
| 2026-04-25 05:27 | 60.14468 | 70.71849 | 33773 ft | 443 kts | 284° |
| 2026-04-25 05:27 | 60.16713 | 70.60323 | 33770 ft | 443 kts | 284° |
| 2026-04-25 05:28 | 60.18931 | 70.48857 | 33774 ft | 443 kts | 284° |
| 2026-04-25 05:28 | 60.21158 | 70.37269 | 33760 ft | 446 kts | 284° |
| 2026-04-25 05:29 | 60.23388 | 70.25603 | 33757 ft | 447 kts | 284° |
| 2026-04-25 05:29 | 60.25614 | 70.13896 | 33757 ft | 449 kts | 284° |
| 2026-04-25 05:30 | 60.27842 | 70.02114 | 33748 ft | 450 kts | 284° |
| 2026-04-25 05:30 | 60.30056 | 69.90302 | 33748 ft | 450 kts | 284° |
| 2026-04-25 05:31 | 60.32258 | 69.78475 | 33748 ft | 450 kts | 283° |
| 2026-04-25 05:31 | 60.34450 | 69.66629 | 33739 ft | 450 kts | 283° |
| 2026-04-25 05:32 | 60.36637 | 69.54777 | 33768 ft | 451 kts | 284° |
| 2026-04-25 05:32 | 60.38825 | 69.42850 | 33745 ft | 454 kts | 284° |
| 2026-04-25 05:33 | 60.41011 | 69.30866 | 33733 ft | 455 kts | 284° |
| 2026-04-25 05:33 | 60.43194 | 69.18823 | 33734 ft | 456 kts | 283° |
| 2026-04-25 05:34 | 60.45371 | 69.06746 | 33731 ft | 456 kts | 283° |
| 2026-04-25 05:34 | 60.47521 | 68.94740 | 33733 ft | 456 kts | 283° |
| 2026-04-25 05:35 | 60.49674 | 68.82644 | 33733 ft | 456 kts | 283° |
| 2026-04-25 05:35 | 60.51820 | 68.70535 | 33729 ft | 456 kts | 283° |
| 2026-04-25 05:36 | 60.53952 | 68.58406 | 33729 ft | 456 kts | 283° |
| 2026-04-25 05:36 | 60.56070 | 68.46264 | 33730 ft | 456 kts | 283° |
| 2026-04-25 05:37 | 60.58179 | 68.34106 | 33730 ft | 456 kts | 283° |
| 2026-04-25 05:37 | 60.60279 | 68.21930 | 33730 ft | 456 kts | 283° |
| 2026-04-25 05:38 | 60.62366 | 68.09749 | 33730 ft | 456 kts | 283° |
| 2026-04-25 05:38 | 60.64441 | 67.97553 | 33733 ft | 456 kts | 283° |
| 2026-04-25 05:39 | 60.66506 | 67.85339 | 33730 ft | 456 kts | 282° |
| 2026-04-25 05:39 | 60.68559 | 67.73104 | 33744 ft | 456 kts | 283° |
| 2026-04-25 05:40 | 60.70609 | 67.60809 | 33737 ft | 459 kts | 282° |
| 2026-04-25 05:40 | 60.72662 | 67.48429 | 33735 ft | 461 kts | 282° |
| 2026-04-25 05:41 | 60.74694 | 67.36018 | 33738 ft | 461 kts | 282° |
| 2026-04-25 05:41 | 60.76708 | 67.23587 | 33741 ft | 460 kts | 282° |
| 2026-04-25 05:42 | 60.78714 | 67.11139 | 33739 ft | 460 kts | 282° |
| 2026-04-25 05:42 | 60.80709 | 66.98681 | 33742 ft | 460 kts | 282° |
| 2026-04-25 05:43 | 60.82678 | 66.86304 | 33743 ft | 460 kts | 282° |
| 2026-04-25 05:43 | 60.84654 | 66.73787 | 33757 ft | 463 kts | 282° |
| 2026-04-25 05:44 | 60.86631 | 66.61172 | 33739 ft | 466 kts | 282° |
| 2026-04-25 05:44 | 60.88605 | 66.48501 | 33732 ft | 466 kts | 282° |
| 2026-04-25 05:45 | 60.90568 | 66.35810 | 33738 ft | 466 kts | 282° |
| 2026-04-25 05:45 | 60.92518 | 66.23109 | 33726 ft | 466 kts | 282° |
| 2026-04-25 05:46 | 60.94453 | 66.10401 | 33735 ft | 466 kts | 281° |
| 2026-04-25 05:46 | 60.96377 | 65.97680 | 33729 ft | 466 kts | 281° |
| 2026-04-25 05:47 | 60.98296 | 65.84932 | 33742 ft | 467 kts | 282° |
| 2026-04-25 05:47 | 61.00209 | 65.72078 | 33731 ft | 470 kts | 281° |
| 2026-04-25 05:48 | 61.02119 | 65.59169 | 33728 ft | 471 kts | 281° |
| 2026-04-25 05:48 | 61.04018 | 65.46249 | 33730 ft | 471 kts | 281° |
| 2026-04-25 05:49 | 61.05904 | 65.33323 | 33729 ft | 470 kts | 281° |
| 2026-04-25 05:49 | 61.07778 | 65.20373 | 33729 ft | 470 kts | 281° |
| 2026-04-25 05:50 | 61.09637 | 65.07416 | 33715 ft | 470 kts | 281° |
| 2026-04-25 05:50 | 61.11486 | 64.94434 | 33745 ft | 471 kts | 281° |
| 2026-04-25 05:51 | 61.13329 | 64.81374 | 33733 ft | 474 kts | 281° |
| 2026-04-25 05:51 | 61.15168 | 64.68255 | 33707 ft | 475 kts | 281° |
| 2026-04-25 05:52 | 61.16996 | 64.55116 | 33706 ft | 475 kts | 281° |
| 2026-04-25 05:52 | 61.18815 | 64.41964 | 33714 ft | 475 kts | 281° |
| 2026-04-25 05:53 | 61.20611 | 64.28890 | 33720 ft | 474 kts | 281° |
| 2026-04-25 05:53 | 61.22405 | 64.15710 | 33705 ft | 474 kts | 281° |
| 2026-04-25 05:54 | 61.24186 | 64.02520 | 33712 ft | 475 kts | 280° |
| 2026-04-25 05:54 | 61.26846 | 63.82605 | 33698 ft | 479 kts | 281° |
| 2026-04-25 05:55 | 61.28166 | 63.69141 | 33698 ft | 471 kts | 270° |
| 2026-04-25 05:55 | 61.27707 | 63.55743 | 33696 ft | 462 kts | 255° |
| 2026-04-25 05:56 | 61.26201 | 63.42773 | 33688 ft | 461 kts | 252° |
| 2026-04-25 05:56 | 61.24516 | 63.29921 | 33687 ft | 461 kts | 251° |
| 2026-04-25 05:57 | 61.22819 | 63.17060 | 33679 ft | 463 kts | 251° |
| 2026-04-25 05:57 | 61.21131 | 63.04157 | 33683 ft | 463 kts | 251° |
| 2026-04-25 05:58 | 61.19444 | 62.91261 | 33677 ft | 463 kts | 251° |
| 2026-04-25 05:58 | 61.17747 | 62.78386 | 33675 ft | 463 kts | 251° |
| 2026-04-25 05:59 | 61.16041 | 62.65509 | 33670 ft | 463 kts | 251° |
| 2026-04-25 05:59 | 61.14319 | 62.52644 | 33661 ft | 464 kts | 251° |
| 2026-04-25 06:00 | 61.12583 | 62.39786 | 33664 ft | 464 kts | 251° |
| 2026-04-25 06:00 | 61.10834 | 62.26939 | 33659 ft | 464 kts | 251° |
| 2026-04-25 06:01 | 61.09074 | 62.14101 | 33654 ft | 464 kts | 251° |
| 2026-04-25 06:01 | 61.07302 | 62.01282 | 33653 ft | 464 kts | 251° |
| 2026-04-25 06:02 | 61.05519 | 61.88479 | 33652 ft | 465 kts | 250° |
| 2026-04-25 06:02 | 61.03716 | 61.75643 | 33648 ft | 466 kts | 250° |
| 2026-04-25 06:03 | 61.01900 | 61.62812 | 33648 ft | 466 kts | 250° |
| 2026-04-25 06:03 | 61.00078 | 61.49995 | 33647 ft | 466 kts | 250° |
| 2026-04-25 06:04 | 60.98270 | 61.37271 | 33647 ft | 466 kts | 250° |
| 2026-04-25 06:04 | 60.96440 | 61.24475 | 33680 ft | 466 kts | 250° |
| 2026-04-25 06:05 | 60.94587 | 61.11641 | 33644 ft | 470 kts | 250° |
| 2026-04-25 06:05 | 60.92712 | 60.98754 | 33644 ft | 471 kts | 250° |
| 2026-04-25 06:06 | 60.90824 | 60.85876 | 33645 ft | 470 kts | 250° |
| 2026-04-25 06:06 | 60.88926 | 60.73023 | 33644 ft | 470 kts | 250° |
| 2026-04-25 06:07 | 60.87016 | 60.60193 | 33642 ft | 470 kts | 250° |
| 2026-04-25 06:07 | 60.85091 | 60.47358 | 33633 ft | 470 kts | 250° |
| 2026-04-25 06:08 | 60.83155 | 60.34551 | 33631 ft | 470 kts | 249° |
| 2026-04-25 06:08 | 60.81207 | 60.21756 | 33625 ft | 470 kts | 249° |
| 2026-04-25 06:09 | 60.79580 | 60.11143 | 33629 ft | 470 kts | 249° |
| 2026-04-25 06:09 | 60.77608 | 59.98365 | 33896 ft | 471 kts | 249° |
| 2026-04-25 06:10 | 60.76618 | 59.91985 | 34099 ft | 471 kts | 249° |
| 2026-04-25 06:10 | 60.75621 | 59.85592 | 34245 ft | 472 kts | 249° |
| 2026-04-25 06:10 | 60.74624 | 59.79211 | 34447 ft | 472 kts | 249° |
| 2026-04-25 06:10 | 60.73618 | 59.72803 | 34628 ft | 472 kts | 249° |
| 2026-04-25 06:11 | 60.72612 | 59.66416 | 34783 ft | 473 kts | 249° |
| 2026-04-25 06:11 | 60.71602 | 59.60025 | 34961 ft | 473 kts | 249° |
| 2026-04-25 06:11 | 60.70590 | 59.53644 | 35135 ft | 473 kts | 249° |
| 2026-04-25 06:11 | 60.69573 | 59.47253 | 35303 ft | 473 kts | 249° |
| 2026-04-25 06:12 | 60.68553 | 59.40873 | 35450 ft | 473 kts | 249° |
| 2026-04-25 06:12 | 60.67529 | 59.34486 | 35579 ft | 474 kts | 249° |
| 2026-04-25 06:12 | 60.65465 | 59.21690 | 35606 ft | 476 kts | 249° |
| 2026-04-25 06:13 | 60.63384 | 59.08877 | 35600 ft | 476 kts | 249° |
| 2026-04-25 06:14 | 60.60238 | 58.89676 | 35588 ft | 476 kts | 248° |
| 2026-04-25 06:14 | 60.58140 | 58.76984 | 35589 ft | 476 kts | 248° |
| 2026-04-25 06:15 | 60.56016 | 58.64223 | 35597 ft | 477 kts | 248° |
| 2026-04-25 06:15 | 60.53874 | 58.51455 | 35588 ft | 478 kts | 248° |
| 2026-04-25 06:16 | 60.51720 | 58.38692 | 35587 ft | 478 kts | 248° |
| 2026-04-25 06:16 | 60.49552 | 58.25941 | 35584 ft | 478 kts | 248° |
| 2026-04-25 06:17 | 60.47373 | 58.13208 | 35579 ft | 478 kts | 248° |
| 2026-04-25 06:17 | 60.45181 | 58.00492 | 35589 ft | 478 kts | 248° |
| 2026-04-25 06:18 | 60.42973 | 57.87776 | 35580 ft | 479 kts | 248° |
| 2026-04-25 06:18 | 60.40751 | 57.75060 | 35582 ft | 479 kts | 248° |
| 2026-04-25 06:19 | 60.38516 | 57.62358 | 35573 ft | 479 kts | 247° |
| 2026-04-25 06:19 | 60.36273 | 57.49662 | 35568 ft | 480 kts | 248° |
| 2026-04-25 06:20 | 60.34030 | 57.36946 | 35566 ft | 481 kts | 248° |
| 2026-04-25 06:20 | 60.31777 | 57.24245 | 35561 ft | 482 kts | 248° |
| 2026-04-25 06:21 | 60.29501 | 57.11515 | 35555 ft | 482 kts | 247° |
| 2026-04-25 06:21 | 60.27215 | 56.98819 | 35573 ft | 482 kts | 247° |
| 2026-04-25 06:21 | 60.26065 | 56.92469 | 35726 ft | 482 kts | 247° |
| 2026-04-25 06:22 | 60.24929 | 56.86215 | 35895 ft | 482 kts | 247° |
| 2026-04-25 06:22 | 60.23776 | 56.79887 | 36059 ft | 482 kts | 247° |
| 2026-04-25 06:22 | 60.22619 | 56.73561 | 36183 ft | 482 kts | 247° |
| 2026-04-25 06:22 | 60.21456 | 56.67223 | 36291 ft | 483 kts | 247° |
| 2026-04-25 06:23 | 60.20288 | 56.60880 | 36436 ft | 483 kts | 247° |
| 2026-04-25 06:23 | 60.19121 | 56.54559 | 36555 ft | 483 kts | 247° |
| 2026-04-25 06:23 | 60.17949 | 56.48232 | 36698 ft | 483 kts | 247° |
| 2026-04-25 06:23 | 60.16773 | 56.41908 | 36818 ft | 483 kts | 247° |
| 2026-04-25 06:24 | 60.15595 | 56.35590 | 36939 ft | 483 kts | 246° |
| 2026-04-25 06:24 | 60.14412 | 56.29267 | 37050 ft | 483 kts | 246° |
| 2026-04-25 06:24 | 60.13227 | 56.22956 | 37158 ft | 484 kts | 246° |
| 2026-04-25 06:24 | 60.12039 | 56.16645 | 37274 ft | 484 kts | 246° |
| 2026-04-25 06:25 | 60.10846 | 56.10330 | 37349 ft | 484 kts | 246° |
| 2026-04-25 06:25 | 60.08448 | 55.97702 | 37518 ft | 486 kts | 246° |
| 2026-04-25 06:26 | 60.06035 | 55.85073 | 37522 ft | 485 kts | 246° |
| 2026-04-25 06:26 | 60.03611 | 55.72469 | 37520 ft | 485 kts | 246° |
| 2026-04-25 06:27 | 60.01175 | 55.59883 | 37517 ft | 485 kts | 246° |
| 2026-04-25 06:27 | 59.98729 | 55.47323 | 37521 ft | 485 kts | 246° |
| 2026-04-25 06:28 | 59.97000 | 55.34272 | 37512 ft | 490 kts | 258° |
| 2026-04-25 06:28 | 59.96028 | 55.20769 | 37507 ft | 491 kts | 260° |
| 2026-04-25 06:29 | 59.95172 | 55.07242 | 37501 ft | 492 kts | 260° |
| 2026-04-25 06:29 | 59.94302 | 54.93714 | 37496 ft | 491 kts | 259° |
| 2026-04-25 06:30 | 59.93399 | 54.80203 | 37502 ft | 491 kts | 259° |
| 2026-04-25 06:30 | 59.92473 | 54.66719 | 37497 ft | 491 kts | 259° |
| 2026-04-25 06:31 | 59.91534 | 54.53253 | 37489 ft | 491 kts | 259° |
| 2026-04-25 06:31 | 59.90580 | 54.39786 | 37489 ft | 491 kts | 259° |
| 2026-04-25 06:32 | 59.89613 | 54.26319 | 37492 ft | 491 kts | 259° |
| 2026-04-25 06:32 | 59.88635 | 54.12876 | 37486 ft | 491 kts | 259° |
| 2026-04-25 06:33 | 59.87655 | 53.99430 | 37483 ft | 491 kts | 259° |
| 2026-04-25 06:33 | 59.86659 | 53.85999 | 37471 ft | 490 kts | 259° |
| 2026-04-25 06:34 | 59.85650 | 53.72573 | 37471 ft | 491 kts | 259° |
| 2026-04-25 06:34 | 59.84626 | 53.59154 | 37469 ft | 490 kts | 258° |
| 2026-04-25 06:35 | 59.83590 | 53.45751 | 37467 ft | 490 kts | 258° |
| 2026-04-25 06:35 | 59.82541 | 53.32361 | 37463 ft | 490 kts | 259° |
| 2026-04-25 06:36 | 59.81480 | 53.18997 | 37459 ft | 489 kts | 259° |
| 2026-04-25 06:36 | 59.80406 | 53.05653 | 37453 ft | 489 kts | 259° |
| 2026-04-25 06:37 | 59.79320 | 52.92329 | 37456 ft | 489 kts | 259° |
| 2026-04-25 06:37 | 59.78226 | 52.79091 | 37454 ft | 489 kts | 259° |
| 2026-04-25 06:38 | 59.77112 | 52.65785 | 37457 ft | 489 kts | 259° |
| 2026-04-25 06:38 | 59.75984 | 52.52475 | 37453 ft | 489 kts | 259° |
| 2026-04-25 06:39 | 59.74843 | 52.39177 | 37449 ft | 489 kts | 258° |
| 2026-04-25 06:39 | 59.73689 | 52.25882 | 37452 ft | 489 kts | 258° |
| 2026-04-25 06:40 | 59.72521 | 52.12601 | 37440 ft | 489 kts | 258° |
| 2026-04-25 06:40 | 59.71341 | 51.99327 | 37441 ft | 489 kts | 258° |
| 2026-04-25 06:41 | 59.70144 | 51.86054 | 37435 ft | 490 kts | 258° |
| 2026-04-25 06:41 | 59.68928 | 51.72778 | 37434 ft | 490 kts | 258° |
| 2026-04-25 06:42 | 59.67700 | 51.59501 | 37420 ft | 490 kts | 258° |
| 2026-04-25 06:42 | 59.66459 | 51.46232 | 37420 ft | 490 kts | 258° |
| 2026-04-25 06:43 | 59.65205 | 51.32973 | 37414 ft | 490 kts | 258° |
| 2026-04-25 06:43 | 59.63938 | 51.19737 | 37416 ft | 490 kts | 258° |
| 2026-04-25 06:44 | 59.62656 | 51.06478 | 37406 ft | 491 kts | 258° |
| 2026-04-25 06:44 | 59.61359 | 50.93228 | 37404 ft | 491 kts | 258° |
| 2026-04-25 06:45 | 59.59606 | 50.80220 | 37405 ft | 490 kts | 250° |
| 2026-04-25 06:45 | 59.57349 | 50.67529 | 37406 ft | 490 kts | 249° |
| 2026-04-25 06:46 | 59.55002 | 50.54913 | 37399 ft | 490 kts | 249° |
| 2026-04-25 06:46 | 59.52644 | 50.42325 | 37401 ft | 490 kts | 249° |
| 2026-04-25 06:47 | 59.50263 | 50.29724 | 37399 ft | 490 kts | 249° |
| 2026-04-25 06:47 | 59.47855 | 50.17166 | 37394 ft | 491 kts | 249° |
| 2026-04-25 06:48 | 59.45452 | 50.04698 | 37392 ft | 491 kts | 249° |
| 2026-04-25 06:48 | 59.43026 | 49.92161 | 37390 ft | 491 kts | 249° |
| 2026-04-25 06:49 | 59.40588 | 49.79633 | 37392 ft | 492 kts | 249° |
| 2026-04-25 06:49 | 59.38136 | 49.67114 | 37393 ft | 492 kts | 249° |
| 2026-04-25 06:50 | 59.35670 | 49.54603 | 37395 ft | 492 kts | 249° |
| 2026-04-25 06:50 | 59.33194 | 49.42119 | 37387 ft | 492 kts | 248° |
| 2026-04-25 06:51 | 59.30704 | 49.29648 | 37386 ft | 492 kts | 249° |
| 2026-04-25 06:51 | 59.28201 | 49.17181 | 37384 ft | 492 kts | 248° |
| 2026-04-25 06:52 | 59.25685 | 49.04733 | 37385 ft | 492 kts | 248° |
| 2026-04-25 06:52 | 59.23158 | 48.92305 | 37390 ft | 492 kts | 248° |
| 2026-04-25 06:53 | 59.20617 | 48.79887 | 37387 ft | 492 kts | 248° |
| 2026-04-25 06:53 | 59.18076 | 48.67481 | 37389 ft | 493 kts | 249° |
| 2026-04-25 06:54 | 59.15540 | 48.55162 | 37391 ft | 493 kts | 248° |
| 2026-04-25 06:54 | 59.12974 | 48.42775 | 37386 ft | 493 kts | 248° |
| 2026-04-25 06:55 | 59.10393 | 48.30395 | 37396 ft | 493 kts | 248° |
| 2026-04-25 06:55 | 59.07804 | 48.18049 | 37395 ft | 492 kts | 248° |
| 2026-04-25 06:56 | 59.05209 | 48.05746 | 37405 ft | 493 kts | 249° |
| 2026-04-25 06:56 | 59.02593 | 47.93422 | 37406 ft | 494 kts | 249° |
| 2026-04-25 06:57 | 58.99963 | 47.81105 | 37414 ft | 494 kts | 248° |
| 2026-04-25 06:57 | 58.97321 | 47.68806 | 37416 ft | 494 kts | 248° |
| 2026-04-25 06:58 | 58.95117 | 47.58600 | 37422 ft | 494 kts | 248° |
| 2026-04-25 06:58 | 58.92453 | 47.46332 | 37423 ft | 494 kts | 248° |
| 2026-04-25 06:59 | 58.89785 | 47.34102 | 37426 ft | 494 kts | 248° |
| 2026-04-25 06:59 | 58.87100 | 47.21861 | 37427 ft | 494 kts | 248° |
| 2026-04-25 07:00 | 58.84406 | 47.09646 | 37428 ft | 494 kts | 248° |
| 2026-04-25 07:00 | 58.81703 | 46.97467 | 37440 ft | 494 kts | 248° |
| 2026-04-25 07:01 | 58.78982 | 46.85280 | 37445 ft | 494 kts | 248° |
| 2026-04-25 07:01 | 58.76252 | 46.73118 | 37440 ft | 494 kts | 248° |
| 2026-04-25 07:02 | 58.73511 | 46.60982 | 37451 ft | 494 kts | 248° |
| 2026-04-25 07:02 | 58.70759 | 46.48862 | 37451 ft | 494 kts | 248° |
| 2026-04-25 07:03 | 58.67995 | 46.36761 | 37459 ft | 494 kts | 247° |
| 2026-04-25 07:03 | 58.65218 | 46.24670 | 37460 ft | 495 kts | 248° |
| 2026-04-25 07:04 | 58.62428 | 46.12595 | 37466 ft | 494 kts | 248° |
| 2026-04-25 07:04 | 58.59631 | 46.00553 | 37473 ft | 494 kts | 248° |
| 2026-04-25 07:05 | 58.56820 | 45.88523 | 37470 ft | 494 kts | 247° |
| 2026-04-25 07:05 | 58.54110 | 45.76443 | 37459 ft | 493 kts | 253° |
| 2026-04-25 07:06 | 58.52221 | 45.63856 | 37479 ft | 492 kts | 257° |
| 2026-04-25 07:06 | 58.50513 | 45.51186 | 37479 ft | 492 kts | 257° |
| 2026-04-25 07:07 | 58.48822 | 45.38505 | 37478 ft | 492 kts | 257° |
| 2026-04-25 07:07 | 58.47121 | 45.25950 | 37478 ft | 492 kts | 257° |
| 2026-04-25 07:08 | 58.45369 | 45.13204 | 37479 ft | 492 kts | 257° |
| 2026-04-25 07:08 | 58.43627 | 45.00663 | 37480 ft | 492 kts | 257° |
| 2026-04-25 07:09 | 58.41851 | 44.87978 | 37476 ft | 491 kts | 257° |
| 2026-04-25 07:09 | 58.40076 | 44.75389 | 37484 ft | 491 kts | 257° |
| 2026-04-25 07:10 | 58.38291 | 44.62835 | 37475 ft | 490 kts | 257° |
| 2026-04-25 07:10 | 58.36507 | 44.50383 | 37487 ft | 490 kts | 257° |
| 2026-04-25 07:11 | 58.34698 | 44.37862 | 37489 ft | 491 kts | 257° |
| 2026-04-25 07:11 | 58.32879 | 44.25358 | 37492 ft | 490 kts | 257° |
| 2026-04-25 07:12 | 58.31045 | 44.12854 | 37500 ft | 490 kts | 257° |
| 2026-04-25 07:12 | 58.28274 | 43.94134 | 37507 ft | 491 kts | 256° |
| 2026-04-25 07:13 | 58.26410 | 43.81669 | 37511 ft | 491 kts | 256° |
| 2026-04-25 07:13 | 58.24534 | 43.69214 | 37510 ft | 490 kts | 256° |
| 2026-04-25 07:14 | 58.22651 | 43.56806 | 37515 ft | 489 kts | 256° |
| 2026-04-25 07:14 | 58.20757 | 43.44416 | 37527 ft | 489 kts | 256° |
| 2026-04-25 07:15 | 58.18852 | 43.32046 | 37525 ft | 489 kts | 256° |
| 2026-04-25 07:15 | 58.16937 | 43.19699 | 37525 ft | 489 kts | 256° |
| 2026-04-25 07:16 | 58.15008 | 43.07357 | 37524 ft | 489 kts | 256° |
| 2026-04-25 07:16 | 58.13069 | 42.95038 | 37541 ft | 488 kts | 256° |
| 2026-04-25 07:17 | 58.11120 | 42.82742 | 37546 ft | 488 kts | 256° |
| 2026-04-25 07:17 | 58.09158 | 42.70455 | 37548 ft | 488 kts | 256° |
| 2026-04-25 07:18 | 58.07185 | 42.58183 | 37554 ft | 488 kts | 256° |
| 2026-04-25 07:18 | 58.05198 | 42.45920 | 37532 ft | 488 kts | 256° |
| 2026-04-25 07:19 | 58.03204 | 42.33695 | 37558 ft | 487 kts | 256° |
| 2026-04-25 07:19 | 58.01202 | 42.21501 | 37556 ft | 487 kts | 255° |
| 2026-04-25 07:20 | 57.99186 | 42.09310 | 37559 ft | 487 kts | 255° |
| 2026-04-25 07:20 | 57.97158 | 41.97131 | 37565 ft | 487 kts | 255° |
| 2026-04-25 07:21 | 57.95118 | 41.84964 | 37565 ft | 487 kts | 255° |
| 2026-04-25 07:21 | 57.93066 | 41.72810 | 37568 ft | 488 kts | 255° |
| 2026-04-25 07:22 | 57.91001 | 41.60655 | 37568 ft | 488 kts | 255° |
| 2026-04-25 07:22 | 57.88944 | 41.48593 | 37568 ft | 488 kts | 255° |
| 2026-04-25 07:23 | 57.86866 | 41.36373 | 37576 ft | 488 kts | 255° |
| 2026-04-25 07:23 | 57.84793 | 41.24252 | 37572 ft | 488 kts | 255° |
| 2026-04-25 07:24 | 57.82718 | 41.12218 | 37578 ft | 488 kts | 255° |
| 2026-04-25 07:24 | 57.80617 | 41.00125 | 37584 ft | 488 kts | 255° |
| 2026-04-25 07:25 | 57.78505 | 40.88047 | 37580 ft | 487 kts | 255° |
| 2026-04-25 07:25 | 57.76382 | 40.75987 | 37594 ft | 487 kts | 255° |
| 2026-04-25 07:26 | 57.74249 | 40.63946 | 37592 ft | 487 kts | 254° |
| 2026-04-25 07:26 | 57.72103 | 40.51917 | 37572 ft | 487 kts | 255° |
| 2026-04-25 07:27 | 57.69947 | 40.39905 | 37592 ft | 487 kts | 254° |
| 2026-04-25 07:27 | 57.67783 | 40.27927 | 37594 ft | 487 kts | 254° |
| 2026-04-25 07:28 | 57.65607 | 40.15954 | 37609 ft | 487 kts | 254° |
| 2026-04-25 07:28 | 57.63420 | 40.04003 | 37609 ft | 487 kts | 254° |
| 2026-04-25 07:29 | 57.61220 | 39.92062 | 37607 ft | 487 kts | 254° |
| 2026-04-25 07:29 | 57.59014 | 39.80149 | 37602 ft | 484 kts | 254° |
| 2026-04-25 07:30 | 57.56812 | 39.68328 | 37607 ft | 482 kts | 254° |
| 2026-04-25 07:30 | 57.54604 | 39.56542 | 37611 ft | 482 kts | 254° |
| 2026-04-25 07:31 | 57.52387 | 39.44782 | 37618 ft | 482 kts | 253° |
| 2026-04-25 07:31 | 57.50155 | 39.33024 | 37620 ft | 482 kts | 253° |
| 2026-04-25 07:32 | 57.47918 | 39.21291 | 37621 ft | 480 kts | 253° |
| 2026-04-25 07:32 | 57.45683 | 39.09627 | 37624 ft | 478 kts | 253° |
| 2026-04-25 07:33 | 57.43439 | 38.98008 | 37631 ft | 478 kts | 253° |
| 2026-04-25 07:33 | 57.41184 | 38.86395 | 37630 ft | 478 kts | 253° |
| 2026-04-25 07:34 | 57.38918 | 38.74795 | 37633 ft | 478 kts | 253° |
| 2026-04-25 07:34 | 57.36645 | 38.63217 | 37622 ft | 478 kts | 253° |
| 2026-04-25 07:35 | 57.34373 | 38.51722 | 37641 ft | 473 kts | 252° |
| 2026-04-25 07:35 | 57.32119 | 38.40378 | 37642 ft | 472 kts | 252° |
| 2026-04-25 07:36 | 57.29842 | 38.28981 | 37641 ft | 472 kts | 252° |
| 2026-04-25 07:36 | 57.27546 | 38.17597 | 37642 ft | 472 kts | 252° |
| 2026-04-25 07:37 | 57.25236 | 38.06236 | 37645 ft | 472 kts | 252° |
| 2026-04-25 07:37 | 57.22920 | 37.94896 | 37647 ft | 472 kts | 252° |
| 2026-04-25 07:38 | 57.20595 | 37.83574 | 37647 ft | 471 kts | 252° |
| 2026-04-25 07:38 | 57.18265 | 37.72287 | 37653 ft | 471 kts | 252° |
| 2026-04-25 07:39 | 57.15909 | 37.61002 | 37652 ft | 472 kts | 250° |
| 2026-04-25 07:39 | 57.13190 | 37.49979 | 37658 ft | 473 kts | 247° |
| 2026-04-25 07:40 | 57.10312 | 37.39078 | 37656 ft | 473 kts | 247° |
| 2026-04-25 07:40 | 57.07472 | 37.28177 | 37668 ft | 472 kts | 247° |
| 2026-04-25 07:41 | 57.04668 | 37.17266 | 37672 ft | 472 kts | 248° |
| 2026-04-25 07:41 | 57.01869 | 37.06364 | 37678 ft | 472 kts | 247° |
| 2026-04-25 07:42 | 56.99061 | 36.95481 | 37677 ft | 472 kts | 247° |
| 2026-04-25 07:42 | 56.96240 | 36.84607 | 37695 ft | 472 kts | 247° |
| 2026-04-25 07:43 | 56.93897 | 36.75585 | 37694 ft | 472 kts | 247° |
| 2026-04-25 07:43 | 56.91060 | 36.64750 | 37688 ft | 472 kts | 247° |
| 2026-04-25 07:44 | 56.88216 | 36.53939 | 37698 ft | 472 kts | 247° |
| 2026-04-25 07:44 | 56.85358 | 36.43154 | 37689 ft | 472 kts | 246° |
| 2026-04-25 07:45 | 56.82485 | 36.32382 | 37663 ft | 472 kts | 246° |
| 2026-04-25 07:45 | 56.79612 | 36.21626 | 37701 ft | 471 kts | 246° |
| 2026-04-25 07:46 | 56.76731 | 36.10895 | 37702 ft | 471 kts | 246° |
| 2026-04-25 07:46 | 56.73844 | 36.00196 | 37700 ft | 471 kts | 246° |
| 2026-04-25 07:47 | 56.70953 | 35.89511 | 37698 ft | 470 kts | 246° |
| 2026-04-25 07:47 | 56.68044 | 35.78839 | 37698 ft | 470 kts | 246° |
| 2026-04-25 07:48 | 56.65141 | 35.68176 | 37707 ft | 470 kts | 246° |
| 2026-04-25 07:48 | 56.62236 | 35.57539 | 37708 ft | 470 kts | 245° |
| 2026-04-25 07:49 | 56.59326 | 35.46980 | 37709 ft | 470 kts | 245° |
| 2026-04-25 07:49 | 56.56376 | 35.36393 | 37709 ft | 470 kts | 245° |
| 2026-04-25 07:50 | 56.53435 | 35.25806 | 37712 ft | 470 kts | 245° |
| 2026-04-25 07:50 | 56.50489 | 35.15227 | 37716 ft | 470 kts | 245° |
| 2026-04-25 07:51 | 56.47535 | 35.04665 | 37718 ft | 470 kts | 245° |
| 2026-04-25 07:51 | 56.44574 | 34.94126 | 37718 ft | 470 kts | 245° |
| 2026-04-25 07:52 | 56.41587 | 34.83598 | 37718 ft | 471 kts | 244° |
| 2026-04-25 07:52 | 56.38584 | 34.73096 | 37720 ft | 471 kts | 244° |
| 2026-04-25 07:53 | 56.35571 | 34.62596 | 37713 ft | 471 kts | 244° |
| 2026-04-25 07:53 | 56.32552 | 34.52112 | 37714 ft | 471 kts | 244° |
| 2026-04-25 07:54 | 56.29527 | 34.41638 | 37718 ft | 471 kts | 244° |
| 2026-04-25 07:54 | 56.26495 | 34.31179 | 37715 ft | 471 kts | 244° |
| 2026-04-25 07:55 | 56.23453 | 34.20731 | 37713 ft | 471 kts | 244° |
| 2026-04-25 07:55 | 56.20401 | 34.10302 | 37697 ft | 472 kts | 244° |
| 2026-04-25 07:56 | 56.17342 | 33.99892 | 37715 ft | 471 kts | 244° |
| 2026-04-25 07:56 | 56.14273 | 33.89492 | 37715 ft | 471 kts | 244° |
| 2026-04-25 07:57 | 56.11197 | 33.79117 | 37692 ft | 471 kts | 244° |
| 2026-04-25 07:57 | 56.08110 | 33.68750 | 37720 ft | 472 kts | 244° |
| 2026-04-25 07:58 | 56.05007 | 33.58376 | 37701 ft | 473 kts | 244° |
| 2026-04-25 07:58 | 56.01894 | 33.48014 | 37705 ft | 473 kts | 244° |
| 2026-04-25 07:59 | 55.98768 | 33.37654 | 37702 ft | 473 kts | 244° |
| 2026-04-25 07:59 | 55.95636 | 33.27320 | 37701 ft | 473 kts | 244° |
| 2026-04-25 08:00 | 55.92493 | 33.16995 | 37706 ft | 473 kts | 243° |
| 2026-04-25 08:00 | 55.89364 | 33.06762 | 37702 ft | 473 kts | 243° |
| 2026-04-25 08:01 | 55.86291 | 32.96414 | 37700 ft | 472 kts | 248° |
| 2026-04-25 08:01 | 55.84310 | 32.85344 | 37699 ft | 469 kts | 257° |
| 2026-04-25 08:02 | 55.82816 | 32.74054 | 37691 ft | 469 kts | 258° |
| 2026-04-25 08:02 | 55.81388 | 32.62727 | 37696 ft | 469 kts | 258° |
| 2026-04-25 08:03 | 55.79940 | 32.51432 | 37688 ft | 469 kts | 258° |
| 2026-04-25 08:03 | 55.78464 | 32.40152 | 37683 ft | 468 kts | 258° |
| 2026-04-25 08:04 | 55.76973 | 32.28894 | 37686 ft | 468 kts | 258° |
| 2026-04-25 08:04 | 55.75470 | 32.17641 | 37680 ft | 468 kts | 258° |
| 2026-04-25 08:05 | 55.73960 | 32.06409 | 37679 ft | 468 kts | 258° |
| 2026-04-25 08:05 | 55.72439 | 31.95171 | 37683 ft | 468 kts | 258° |
| 2026-04-25 08:06 | 55.70908 | 31.83948 | 37672 ft | 468 kts | 258° |
| 2026-04-25 08:06 | 55.69367 | 31.72740 | 37668 ft | 468 kts | 258° |
| 2026-04-25 08:07 | 55.67829 | 31.61633 | 37667 ft | 467 kts | 257° |
| 2026-04-25 08:07 | 55.66270 | 31.50457 | 37664 ft | 467 kts | 257° |
| 2026-04-25 08:08 | 55.64701 | 31.39288 | 37667 ft | 467 kts | 257° |
| 2026-04-25 08:08 | 55.63122 | 31.28127 | 37661 ft | 467 kts | 257° |
| 2026-04-25 08:09 | 55.61532 | 31.16977 | 37655 ft | 467 kts | 257° |
| 2026-04-25 08:09 | 55.59932 | 31.05835 | 37659 ft | 467 kts | 257° |
| 2026-04-25 08:10 | 55.58322 | 30.94706 | 37656 ft | 467 kts | 257° |
| 2026-04-25 08:10 | 55.56691 | 30.83605 | 37653 ft | 467 kts | 257° |
| 2026-04-25 08:11 | 55.55034 | 30.72524 | 37647 ft | 467 kts | 257° |
| 2026-04-25 08:11 | 55.53367 | 30.61443 | 37647 ft | 467 kts | 257° |
| 2026-04-25 08:12 | 55.51693 | 30.50369 | 37644 ft | 467 kts | 257° |
| 2026-04-25 08:12 | 55.50009 | 30.39298 | 37642 ft | 467 kts | 257° |
| 2026-04-25 08:13 | 55.48317 | 30.28246 | 37638 ft | 467 kts | 257° |
| 2026-04-25 08:14 | 55.45762 | 30.11701 | 37643 ft | 466 kts | 257° |
| 2026-04-25 08:14 | 55.44049 | 30.00695 | 37643 ft | 466 kts | 257° |
| 2026-04-25 08:15 | 55.42324 | 29.89693 | 37650 ft | 466 kts | 256° |
| 2026-04-25 08:15 | 55.40602 | 29.78782 | 37650 ft | 466 kts | 256° |
| 2026-04-25 08:16 | 55.38858 | 29.67800 | 37650 ft | 466 kts | 256° |
| 2026-04-25 08:16 | 55.37105 | 29.56832 | 37651 ft | 466 kts | 256° |
| 2026-04-25 08:17 | 55.35343 | 29.45880 | 37658 ft | 465 kts | 256° |
| 2026-04-25 08:17 | 55.33574 | 29.34952 | 37656 ft | 465 kts | 256° |
| 2026-04-25 08:18 | 55.31795 | 29.24034 | 37663 ft | 465 kts | 256° |
| 2026-04-25 08:18 | 55.30007 | 29.13127 | 37659 ft | 465 kts | 256° |
| 2026-04-25 08:19 | 55.28209 | 29.02236 | 37665 ft | 465 kts | 256° |
| 2026-04-25 08:19 | 55.26402 | 28.91350 | 37669 ft | 465 kts | 256° |
| 2026-04-25 08:20 | 55.24585 | 28.80479 | 37663 ft | 465 kts | 256° |
| 2026-04-25 08:20 | 55.22758 | 28.69614 | 37673 ft | 465 kts | 256° |
| 2026-04-25 08:21 | 55.20934 | 28.58830 | 37683 ft | 464 kts | 256° |
| 2026-04-25 08:21 | 55.19090 | 28.48003 | 37679 ft | 464 kts | 256° |
| 2026-04-25 08:22 | 55.17238 | 28.37186 | 37685 ft | 464 kts | 256° |
| 2026-04-25 08:22 | 55.15376 | 28.26382 | 37681 ft | 464 kts | 256° |
| 2026-04-25 08:23 | 55.13855 | 28.15458 | 37685 ft | 462 kts | 260° |
| 2026-04-25 08:23 | 55.12526 | 28.04477 | 37699 ft | 462 kts | 261° |
| 2026-04-25 08:24 | 55.11218 | 27.93500 | 37687 ft | 462 kts | 260° |
| 2026-04-25 08:24 | 55.09900 | 27.82529 | 37689 ft | 462 kts | 260° |
| 2026-04-25 08:25 | 55.08565 | 27.71567 | 37691 ft | 462 kts | 260° |
| 2026-04-25 08:25 | 55.07218 | 27.60613 | 37712 ft | 462 kts | 260° |
| 2026-04-25 08:26 | 55.05861 | 27.49663 | 37696 ft | 462 kts | 260° |
| 2026-04-25 08:26 | 55.04494 | 27.38724 | 37706 ft | 461 kts | 260° |
| 2026-04-25 08:27 | 55.03121 | 27.27818 | 37708 ft | 461 kts | 260° |
| 2026-04-25 08:27 | 55.01737 | 27.16906 | 37709 ft | 460 kts | 260° |
| 2026-04-25 08:28 | 55.00347 | 27.06028 | 37708 ft | 460 kts | 260° |
| 2026-04-25 08:28 | 54.98945 | 26.95149 | 37711 ft | 460 kts | 259° |
| 2026-04-25 08:29 | 54.97535 | 26.84288 | 37708 ft | 460 kts | 259° |
| 2026-04-25 08:29 | 54.96116 | 26.73436 | 37708 ft | 460 kts | 259° |
| 2026-04-25 08:30 | 54.94686 | 26.62584 | 37705 ft | 460 kts | 259° |
| 2026-04-25 08:30 | 54.93248 | 26.51755 | 37712 ft | 459 kts | 259° |
| 2026-04-25 08:31 | 54.91803 | 26.40952 | 37708 ft | 458 kts | 259° |
| 2026-04-25 08:31 | 54.90349 | 26.30160 | 37704 ft | 458 kts | 259° |
| 2026-04-25 08:32 | 54.89135 | 26.21203 | 37704 ft | 458 kts | 259° |
| 2026-04-25 08:32 | 54.87660 | 26.10440 | 37704 ft | 458 kts | 259° |
| 2026-04-25 08:33 | 54.86167 | 25.99676 | 37708 ft | 458 kts | 259° |
| 2026-04-25 08:33 | 54.84667 | 25.88923 | 37689 ft | 458 kts | 259° |
| 2026-04-25 08:34 | 54.83040 | 25.78245 | 37713 ft | 460 kts | 253° |
| 2026-04-25 08:34 | 54.80642 | 25.68048 | 37711 ft | 460 kts | 250° |
| 2026-04-25 08:35 | 54.78032 | 25.57846 | 37709 ft | 460 kts | 249° |
| 2026-04-25 08:35 | 54.75420 | 25.47804 | 37710 ft | 460 kts | 249° |
| 2026-04-25 08:36 | 54.72794 | 25.37703 | 37711 ft | 460 kts | 249° |
| 2026-04-25 08:36 | 54.70152 | 25.27543 | 37698 ft | 460 kts | 249° |
| 2026-04-25 08:37 | 54.67525 | 25.17471 | 37725 ft | 460 kts | 249° |
| 2026-04-25 08:37 | 54.64905 | 25.07478 | 37725 ft | 460 kts | 249° |
| 2026-04-25 08:38 | 54.62260 | 24.97433 | 37721 ft | 460 kts | 249° |
| 2026-04-25 08:38 | 54.59609 | 24.87408 | 37723 ft | 459 kts | 249° |
| 2026-04-25 08:39 | 54.56948 | 24.77394 | 37730 ft | 459 kts | 249° |
| 2026-04-25 08:39 | 54.54283 | 24.67406 | 37719 ft | 459 kts | 249° |
| 2026-04-25 08:40 | 54.51612 | 24.57442 | 37737 ft | 458 kts | 249° |
| 2026-04-25 08:40 | 54.48935 | 24.47496 | 37737 ft | 458 kts | 249° |
| 2026-04-25 08:41 | 54.46251 | 24.37565 | 37736 ft | 458 kts | 249° |
| 2026-04-25 08:41 | 54.43557 | 24.27644 | 37742 ft | 458 kts | 249° |
| 2026-04-25 08:42 | 54.40857 | 24.17746 | 37739 ft | 458 kts | 249° |
| 2026-04-25 08:42 | 54.38149 | 24.07857 | 37740 ft | 458 kts | 249° |
| 2026-04-25 08:43 | 54.35434 | 23.97987 | 37744 ft | 458 kts | 249° |
| 2026-04-25 08:43 | 54.32713 | 23.88136 | 37744 ft | 457 kts | 249° |
| 2026-04-25 08:44 | 54.30000 | 23.78359 | 37744 ft | 457 kts | 248° |
| 2026-04-25 08:44 | 54.27261 | 23.68527 | 37746 ft | 458 kts | 248° |
| 2026-04-25 08:45 | 54.24516 | 23.58715 | 37747 ft | 458 kts | 248° |
| 2026-04-25 08:45 | 54.21759 | 23.48904 | 37746 ft | 458 kts | 248° |
| 2026-04-25 08:46 | 54.19001 | 23.39118 | 37750 ft | 457 kts | 248° |
| 2026-04-25 08:46 | 54.16480 | 23.29162 | 37752 ft | 456 kts | 251° |
| 2026-04-25 08:47 | 54.14108 | 23.19128 | 37752 ft | 456 kts | 251° |
| 2026-04-25 08:47 | 54.11700 | 23.09121 | 37752 ft | 456 kts | 251° |
| 2026-04-25 08:48 | 54.09245 | 22.99146 | 37748 ft | 456 kts | 251° |
| 2026-04-25 08:48 | 54.06165 | 22.89636 | 37751 ft | 464 kts | 238° |
| 2026-04-25 08:49 | 54.01748 | 22.81522 | 37752 ft | 470 kts | 229° |
| 2026-04-25 08:49 | 53.96960 | 22.73909 | 37753 ft | 472 kts | 227° |
| 2026-04-25 08:50 | 53.92125 | 22.66380 | 37759 ft | 472 kts | 227° |
| 2026-04-25 08:50 | 53.87303 | 22.58833 | 37760 ft | 472 kts | 228° |
| 2026-04-25 08:51 | 53.82522 | 22.51324 | 37759 ft | 472 kts | 228° |
| 2026-04-25 08:51 | 53.77713 | 22.43778 | 37762 ft | 471 kts | 228° |
| 2026-04-25 08:52 | 53.72900 | 22.36253 | 37762 ft | 471 kts | 228° |
| 2026-04-25 08:52 | 53.68083 | 22.28749 | 37757 ft | 471 kts | 228° |
| 2026-04-25 08:53 | 53.63259 | 22.21258 | 37767 ft | 471 kts | 227° |
| 2026-04-25 08:53 | 53.58428 | 22.13783 | 37765 ft | 471 kts | 227° |
| 2026-04-25 08:54 | 53.53595 | 22.06329 | 37768 ft | 471 kts | 227° |
| 2026-04-25 08:54 | 53.48756 | 21.98887 | 37774 ft | 471 kts | 227° |
| 2026-04-25 08:55 | 53.43912 | 21.91464 | 37777 ft | 472 kts | 227° |
| 2026-04-25 08:56 | 53.34269 | 21.76757 | 37783 ft | 472 kts | 227° |
| 2026-04-25 08:56 | 53.29405 | 21.69374 | 37776 ft | 472 kts | 227° |
| 2026-04-25 08:57 | 53.24539 | 21.62010 | 37801 ft | 472 kts | 227° |
| 2026-04-25 08:57 | 53.19666 | 21.54661 | 37780 ft | 472 kts | 227° |
| 2026-04-25 08:58 | 53.14789 | 21.47328 | 37784 ft | 472 kts | 227° |
| 2026-04-25 08:58 | 53.09905 | 21.40009 | 37814 ft | 472 kts | 227° |
| 2026-04-25 08:59 | 53.05015 | 21.32706 | 37801 ft | 473 kts | 227° |
| 2026-04-25 08:59 | 53.00120 | 21.25413 | 37810 ft | 472 kts | 227° |
| 2026-04-25 09:00 | 52.95231 | 21.18156 | 37811 ft | 471 kts | 227° |
| 2026-04-25 09:00 | 52.90342 | 21.10925 | 37818 ft | 471 kts | 227° |
| 2026-04-25 09:01 | 52.85447 | 21.03705 | 37810 ft | 471 kts | 227° |
| 2026-04-25 09:01 | 52.80544 | 20.96494 | 37827 ft | 472 kts | 227° |
| 2026-04-25 09:02 | 52.75641 | 20.89309 | 37832 ft | 472 kts | 227° |
| 2026-04-25 09:02 | 52.70723 | 20.82124 | 37837 ft | 472 kts | 227° |
| 2026-04-25 09:03 | 52.65809 | 20.74966 | 37815 ft | 472 kts | 227° |
| 2026-04-25 09:03 | 52.60873 | 20.67798 | 37854 ft | 473 kts | 226° |
| 2026-04-25 09:04 | 52.55968 | 20.60697 | 37846 ft | 473 kts | 226° |
| 2026-04-25 09:04 | 52.51024 | 20.53563 | 37854 ft | 473 kts | 226° |
| 2026-04-25 09:05 | 52.46072 | 20.46441 | 37853 ft | 473 kts | 226° |
| 2026-04-25 09:05 | 52.41118 | 20.39336 | 37857 ft | 473 kts | 226° |
| 2026-04-25 09:06 | 52.36157 | 20.32244 | 37867 ft | 474 kts | 226° |
| 2026-04-25 09:06 | 52.31191 | 20.25166 | 37866 ft | 474 kts | 226° |
| 2026-04-25 09:07 | 52.26223 | 20.18109 | 37876 ft | 474 kts | 226° |
| 2026-04-25 09:07 | 52.21249 | 20.11063 | 37885 ft | 473 kts | 226° |
| 2026-04-25 09:08 | 52.16276 | 20.04042 | 37885 ft | 473 kts | 226° |
| 2026-04-25 09:08 | 52.11305 | 19.97044 | 37892 ft | 473 kts | 226° |
| 2026-04-25 09:09 | 52.06329 | 19.90060 | 37892 ft | 473 kts | 226° |
| 2026-04-25 09:09 | 52.01349 | 19.83092 | 37896 ft | 472 kts | 225° |
| 2026-04-25 09:10 | 51.96377 | 19.76158 | 37895 ft | 471 kts | 225° |
| 2026-04-25 09:10 | 51.91403 | 19.69241 | 37900 ft | 471 kts | 225° |
| 2026-04-25 09:11 | 51.83930 | 19.58887 | 37909 ft | 471 kts | 225° |
| 2026-04-25 09:11 | 51.78946 | 19.52009 | 37913 ft | 471 kts | 225° |
| 2026-04-25 09:12 | 51.73956 | 19.45143 | 37914 ft | 471 kts | 225° |
| 2026-04-25 09:12 | 51.68961 | 19.38290 | 37912 ft | 471 kts | 225° |
| 2026-04-25 09:13 | 51.63960 | 19.31450 | 37883 ft | 471 kts | 225° |
| 2026-04-25 09:13 | 51.58978 | 19.24660 | 37914 ft | 468 kts | 225° |
| 2026-04-25 09:14 | 51.54006 | 19.17899 | 37924 ft | 468 kts | 225° |
| 2026-04-25 09:14 | 51.49066 | 19.11201 | 37929 ft | 468 kts | 225° |
| 2026-04-25 09:15 | 51.44087 | 19.04471 | 37914 ft | 468 kts | 226° |
| 2026-04-25 09:15 | 51.39119 | 18.97779 | 37948 ft | 465 kts | 226° |
| 2026-04-25 09:16 | 51.34162 | 18.91119 | 37950 ft | 465 kts | 226° |
| 2026-04-25 09:16 | 51.29204 | 18.84474 | 37951 ft | 465 kts | 226° |
| 2026-04-25 09:17 | 51.21761 | 18.74539 | 37969 ft | 465 kts | 226° |
| 2026-04-25 09:18 | 51.16812 | 18.67958 | 37964 ft | 463 kts | 226° |
| 2026-04-25 09:18 | 51.11856 | 18.61384 | 37970 ft | 463 kts | 226° |
| 2026-04-25 09:19 | 51.06906 | 18.54838 | 37975 ft | 463 kts | 226° |
| 2026-04-25 09:19 | 51.01942 | 18.48294 | 37969 ft | 462 kts | 226° |
| 2026-04-25 09:20 | 50.97002 | 18.41801 | 37985 ft | 461 kts | 226° |
| 2026-04-25 09:20 | 50.92062 | 18.35323 | 37984 ft | 461 kts | 226° |
| 2026-04-25 09:21 | 50.87122 | 18.28863 | 37988 ft | 461 kts | 226° |
| 2026-04-25 09:21 | 50.82177 | 18.22417 | 37987 ft | 460 kts | 226° |
| 2026-04-25 09:22 | 50.77241 | 18.16001 | 37987 ft | 459 kts | 226° |
| 2026-04-25 09:22 | 50.72308 | 18.09607 | 37995 ft | 459 kts | 226° |
| 2026-04-25 09:23 | 50.67372 | 18.03225 | 37998 ft | 459 kts | 226° |
| 2026-04-25 09:23 | 50.62434 | 17.96859 | 37985 ft | 459 kts | 226° |
| 2026-04-25 09:24 | 50.58331 | 17.91584 | 38001 ft | 458 kts | 226° |
| 2026-04-25 09:24 | 50.52595 | 17.84229 | 37999 ft | 458 kts | 226° |
| 2026-04-25 09:25 | 50.47652 | 17.77911 | 38005 ft | 458 kts | 226° |
| 2026-04-25 09:25 | 50.43543 | 17.72671 | 37986 ft | 458 kts | 225° |
| 2026-04-25 09:26 | 50.38597 | 17.66380 | 38005 ft | 458 kts | 225° |
| 2026-04-25 09:26 | 50.33643 | 17.60097 | 38001 ft | 458 kts | 225° |
| 2026-04-25 09:27 | 50.28675 | 17.53849 | 37990 ft | 460 kts | 223° |
| 2026-04-25 09:27 | 50.25909 | 17.51234 | 38001 ft | 470 kts | 211° |
| 2026-04-25 09:27 | 50.22896 | 17.49182 | 37986 ft | 473 kts | 209° |
| 2026-04-25 09:28 | 50.16775 | 17.45342 | 38001 ft | 475 kts | 208° |
| 2026-04-25 09:28 | 50.10635 | 17.41537 | 37998 ft | 475 kts | 208° |
| 2026-04-25 09:29 | 50.04489 | 17.37739 | 38010 ft | 475 kts | 208° |
| 2026-04-25 09:29 | 49.98343 | 17.33952 | 38008 ft | 475 kts | 208° |
| 2026-04-25 09:30 | 49.92212 | 17.30184 | 38021 ft | 474 kts | 208° |
| 2026-04-25 09:30 | 49.86076 | 17.26424 | 38013 ft | 474 kts | 208° |
| 2026-04-25 09:31 | 49.79931 | 17.22668 | 37969 ft | 472 kts | 208° |
| 2026-04-25 09:31 | 49.76888 | 17.20815 | 37322 ft | 470 kts | 208° |
| 2026-04-25 09:31 | 49.73837 | 17.18954 | 36438 ft | 474 kts | 208° |
| 2026-04-25 09:31 | 49.70756 | 17.17078 | 35567 ft | 477 kts | 208° |
| 2026-04-25 09:32 | 49.67653 | 17.15191 | 34759 ft | 480 kts | 208° |
| 2026-04-25 09:32 | 49.64535 | 17.13300 | 33920 ft | 482 kts | 208° |
| 2026-04-25 09:32 | 49.61407 | 17.11405 | 32992 ft | 485 kts | 208° |
| 2026-04-25 09:32 | 49.58262 | 17.09503 | 32109 ft | 486 kts | 208° |
| 2026-04-25 09:33 | 49.55126 | 17.07612 | 31477 ft | 482 kts | 208° |
| 2026-04-25 09:33 | 49.52016 | 17.05741 | 30912 ft | 478 kts | 208° |
| 2026-04-25 09:33 | 49.48936 | 17.03888 | 30346 ft | 473 kts | 208° |
| 2026-04-25 09:33 | 49.45921 | 17.02075 | 29757 ft | 470 kts | 209° |
| 2026-04-25 09:34 | 49.42856 | 17.00231 | 29178 ft | 464 kts | 208° |
| 2026-04-25 09:34 | 49.39900 | 16.98458 | 28641 ft | 459 kts | 208° |
| 2026-04-25 09:34 | 49.36940 | 16.96686 | 28109 ft | 454 kts | 208° |
| 2026-04-25 09:34 | 49.34015 | 16.94936 | 27578 ft | 449 kts | 208° |
| 2026-04-25 09:35 | 49.31117 | 16.93203 | 27082 ft | 445 kts | 208° |
| 2026-04-25 09:35 | 49.28245 | 16.91487 | 26555 ft | 441 kts | 208° |
| 2026-04-25 09:35 | 49.25391 | 16.89786 | 26038 ft | 438 kts | 208° |
| 2026-04-25 09:35 | 49.22564 | 16.88102 | 25530 ft | 434 kts | 208° |
| 2026-04-25 09:36 | 49.19759 | 16.86434 | 25030 ft | 431 kts | 208° |
| 2026-04-25 09:36 | 49.16973 | 16.84778 | 24501 ft | 428 kts | 207° |
| 2026-04-25 09:36 | 49.14203 | 16.83134 | 24008 ft | 426 kts | 207° |
| 2026-04-25 09:36 | 49.11451 | 16.81502 | 23479 ft | 423 kts | 207° |
| 2026-04-25 09:37 | 49.08717 | 16.79883 | 22926 ft | 420 kts | 207° |
| 2026-04-25 09:37 | 49.06004 | 16.78280 | 22385 ft | 416 kts | 207° |
| 2026-04-25 09:37 | 49.03316 | 16.76692 | 21877 ft | 413 kts | 207° |
| 2026-04-25 09:37 | 49.00646 | 16.75117 | 21366 ft | 410 kts | 207° |
| 2026-04-25 09:38 | 48.97997 | 16.73556 | 20857 ft | 407 kts | 206° |
| 2026-04-25 09:38 | 48.95369 | 16.72009 | 20347 ft | 404 kts | 206° |
| 2026-04-25 09:38 | 48.92757 | 16.70474 | 19841 ft | 401 kts | 206° |
| 2026-04-25 09:38 | 48.90158 | 16.68948 | 19338 ft | 399 kts | 206° |
| 2026-04-25 09:39 | 48.87578 | 16.67434 | 18824 ft | 396 kts | 206° |
| 2026-04-25 09:39 | 48.85018 | 16.65934 | 18315 ft | 394 kts | 205° |
| 2026-04-25 09:39 | 48.82470 | 16.64443 | 17750 ft | 391 kts | 205° |
| 2026-04-25 09:40 | 48.77201 | 16.62695 | 16854 ft | 394 kts | 179° |
| 2026-04-25 09:40 | 48.74463 | 16.63351 | 16628 ft | 401 kts | 171° |
| 2026-04-25 09:40 | 48.71732 | 16.64254 | 16398 ft | 402 kts | 170° |
| 2026-04-25 09:40 | 48.69007 | 16.65176 | 16148 ft | 401 kts | 170° |
| 2026-04-25 09:41 | 48.66290 | 16.66086 | 15892 ft | 399 kts | 171° |
| 2026-04-25 09:41 | 48.63578 | 16.66987 | 15630 ft | 398 kts | 171° |
| 2026-04-25 09:41 | 48.60871 | 16.67851 | 15386 ft | 396 kts | 173° |
| 2026-04-25 09:41 | 48.58156 | 16.67998 | 15131 ft | 388 kts | 191° |
| 2026-04-25 09:42 | 48.55672 | 16.66797 | 14886 ft | 377 kts | 212° |
| 2026-04-25 09:42 | 48.53507 | 16.64620 | 14651 ft | 373 kts | 220° |
| 2026-04-25 09:42 | 48.51452 | 16.62254 | 14398 ft | 372 kts | 221° |
| 2026-04-25 09:42 | 48.49392 | 16.59893 | 14157 ft | 372 kts | 219° |
| 2026-04-25 09:43 | 48.47112 | 16.58033 | 13911 ft | 377 kts | 202° |
| 2026-04-25 09:43 | 48.44522 | 16.57401 | 13678 ft | 382 kts | 181° |
| 2026-04-25 09:43 | 48.41894 | 16.58063 | 13419 ft | 384 kts | 167° |
| 2026-04-25 09:43 | 48.39319 | 16.59150 | 13160 ft | 385 kts | 165° |
| 2026-04-25 09:44 | 48.36750 | 16.60272 | 12922 ft | 384 kts | 166° |
| 2026-04-25 09:44 | 48.34181 | 16.61382 | 12680 ft | 383 kts | 166° |
| 2026-04-25 09:44 | 48.31621 | 16.62476 | 12425 ft | 382 kts | 166° |
| 2026-04-25 09:44 | 48.29069 | 16.63558 | 12183 ft | 380 kts | 166° |
| 2026-04-25 09:45 | 48.26528 | 16.64630 | 11950 ft | 379 kts | 166° |
| 2026-04-25 09:45 | 48.23997 | 16.65700 | 11697 ft | 377 kts | 166° |
| 2026-04-25 09:45 | 48.21468 | 16.66760 | 11462 ft | 376 kts | 166° |
| 2026-04-25 09:45 | 48.18951 | 16.67813 | 11222 ft | 375 kts | 166° |
| 2026-04-25 09:46 | 48.16502 | 16.68838 | 11030 ft | 353 kts | 166° |
| 2026-04-25 09:46 | 48.14216 | 16.69797 | 10821 ft | 330 kts | 166° |
| 2026-04-25 09:46 | 48.12079 | 16.70690 | 10605 ft | 309 kts | 166° |
| 2026-04-25 09:46 | 48.10006 | 16.71558 | 10415 ft | 311 kts | 165° |
| 2026-04-25 09:47 | 48.07918 | 16.72428 | 10213 ft | 312 kts | 166° |
| 2026-04-25 09:47 | 48.05818 | 16.73300 | 10063 ft | 312 kts | 166° |
| 2026-04-25 09:47 | 48.03739 | 16.74163 | 9774 ft | 309 kts | 166° |
| 2026-04-25 09:47 | 48.01670 | 16.75020 | 9517 ft | 308 kts | 166° |
| 2026-04-25 09:48 | 47.99605 | 16.75875 | 9285 ft | 307 kts | 166° |
| 2026-04-25 09:48 | 47.97544 | 16.76730 | 9102 ft | 307 kts | 166° |
| 2026-04-25 09:48 | 47.95496 | 16.77580 | 8903 ft | 305 kts | 166° |
| 2026-04-25 09:48 | 47.93449 | 16.78431 | 8708 ft | 305 kts | 166° |
| 2026-04-25 09:49 | 47.91408 | 16.79274 | 8521 ft | 304 kts | 167° |
| 2026-04-25 09:49 | 47.89371 | 16.80111 | 8325 ft | 303 kts | 167° |
| 2026-04-25 09:49 | 47.87344 | 16.80945 | 8128 ft | 302 kts | 167° |
| 2026-04-25 09:49 | 47.85320 | 16.81780 | 7934 ft | 302 kts | 167° |
| 2026-04-25 09:50 | 47.83298 | 16.82612 | 7744 ft | 300 kts | 167° |
| 2026-04-25 09:50 | 47.81328 | 16.83425 | 7615 ft | 288 kts | 167° |
| 2026-04-25 09:50 | 47.79425 | 16.84208 | 7422 ft | 279 kts | 168° |
| 2026-04-25 09:50 | 47.77577 | 16.84972 | 7211 ft | 273 kts | 168° |
| 2026-04-25 09:51 | 47.75745 | 16.85723 | 7022 ft | 273 kts | 168° |
| 2026-04-25 09:51 | 47.73913 | 16.86379 | 6833 ft | 268 kts | 177° |
| 2026-04-25 09:51 | 47.72110 | 16.86129 | 6678 ft | 256 kts | 207° |
| 2026-04-25 09:51 | 47.70714 | 16.84669 | 6509 ft | 241 kts | 236° |
| 2026-04-25 09:52 | 47.69960 | 16.82524 | 6374 ft | 233 kts | 256° |
| 2026-04-25 09:52 | 47.69567 | 16.80238 | 6212 ft | 230 kts | 266° |
| 2026-04-25 09:52 | 47.69683 | 16.77914 | 6055 ft | 226 kts | 293° |
| 2026-04-25 09:52 | 47.70685 | 16.76166 | 5972 ft | 227 kts | 323° |
| 2026-04-25 09:53 | 47.72066 | 16.74997 | 5761 ft | 229 kts | 329° |
| 2026-04-25 09:53 | 47.73520 | 16.74008 | 5611 ft | 228 kts | 335° |
| 2026-04-25 09:53 | 47.74981 | 16.73295 | 5586 ft | 215 kts | 340° |
| 2026-04-25 09:53 | 47.76390 | 16.72757 | 5560 ft | 204 kts | 341° |
| 2026-04-25 09:54 | 47.77752 | 16.72219 | 5559 ft | 202 kts | 340° |
| 2026-04-25 09:54 | 47.79101 | 16.71647 | 5558 ft | 201 kts | 339° |
| 2026-04-25 09:54 | 47.80445 | 16.71078 | 5558 ft | 201 kts | 340° |
| 2026-04-25 09:54 | 47.81795 | 16.70515 | 5559 ft | 201 kts | 340° |
| 2026-04-25 09:55 | 47.83141 | 16.69953 | 5556 ft | 201 kts | 340° |
| 2026-04-25 09:55 | 47.84489 | 16.69388 | 5524 ft | 201 kts | 340° |
| 2026-04-25 09:55 | 47.85837 | 16.68823 | 5353 ft | 201 kts | 339° |
| 2026-04-25 09:55 | 47.87178 | 16.68263 | 5088 ft | 199 kts | 338° |
| 2026-04-25 09:56 | 47.88495 | 16.67710 | 4819 ft | 195 kts | 338° |
| 2026-04-25 09:56 | 47.89798 | 16.67162 | 4483 ft | 194 kts | 338° |
| 2026-04-25 09:56 | 47.91093 | 16.66618 | 4186 ft | 191 kts | 339° |
| 2026-04-25 09:56 | 47.92362 | 16.66084 | 3917 ft | 188 kts | 339° |
| 2026-04-25 09:57 | 47.93599 | 16.65565 | 3674 ft | 181 kts | 339° |
| 2026-04-25 09:57 | 47.94800 | 16.65060 | 3445 ft | 179 kts | 340° |
| 2026-04-25 09:57 | 47.95989 | 16.64562 | 3218 ft | 176 kts | 340° |
| 2026-04-25 09:57 | 47.97163 | 16.64064 | 2958 ft | 173 kts | 340° |
| 2026-04-25 09:58 | 47.98305 | 16.63583 | 2743 ft | 167 kts | 342° |
| 2026-04-25 09:58 | 47.99399 | 16.63131 | 2537 ft | 163 kts | 342° |
| 2026-04-25 09:58 | 48.00490 | 16.62667 | 2316 ft | 162 kts | 341° |
| 2026-04-25 09:58 | 48.01541 | 16.62223 | 2072 ft | 151 kts | 343° |
| 2026-04-25 09:59 | 48.02521 | 16.61810 | 1878 ft | 142 kts | 342° |
| 2026-04-25 09:59 | 48.03478 | 16.61405 | 1704 ft | 143 kts | 342° |
| 2026-04-25 09:59 | 48.04438 | 16.61011 | 1511 ft | 143 kts | 343° |
| 2026-04-25 09:59 | 48.05396 | 16.60613 | 1320 ft | 143 kts | 341° |
| 2026-04-25 10:00 | 48.06346 | 16.60202 | 1113 ft | 140 kts | 342° |
| 2026-04-25 10:00 | 48.07279 | 16.59805 | 939 ft | 138 kts | 343° |
| 2026-04-25 10:00 | 48.08198 | 16.59413 | 743 ft | 137 kts | 343° |
| 2026-04-25 10:00 | 48.09111 | 16.59026 | 632 ft | 137 kts | 343° |
| 2026-04-25 10:01 | 48.09930 | 16.58681 | 626 ft | 93 kts | 345° |
| 2026-04-25 10:01 | 48.10328 | 16.58515 | 626 ft | 46 kts | 345° |
| 2026-04-25 10:01 | 48.10604 | 16.58393 | 624 ft | 30 kts | 337° |
| 2026-04-25 10:01 | 48.10754 | 16.58241 | 628 ft | 23 kts | 317° |
| 2026-04-25 10:02 | 48.10854 | 16.58091 | 629 ft | 14 kts | 314° |
| 2026-04-25 10:02 | 48.10925 | 16.57987 | 627 ft | 14 kts | 314° |
| 2026-04-25 10:02 | 48.10997 | 16.57873 | 629 ft | 16 kts | 313° |
| 2026-04-25 10:02 | 48.11088 | 16.57778 | 626 ft | 17 kts | 340° |
| 2026-04-25 10:03 | 48.11201 | 16.57728 | 626 ft | 18 kts | 343° |
| 2026-04-25 10:03 | 48.11322 | 16.57676 | 626 ft | 19 kts | 344° |
| 2026-04-25 10:03 | 48.11449 | 16.57623 | 627 ft | 20 kts | 345° |
| 2026-04-25 10:03 | 48.11583 | 16.57567 | 629 ft | 20 kts | 344° |
| 2026-04-25 10:04 | 48.11706 | 16.57515 | 621 ft | 13 kts | 344° |
| 2026-04-25 10:04 | 48.11785 | 16.57480 | 620 ft | 8 kts | 336° |
| 2026-04-25 10:04 | 48.11806 | 16.57409 | 624 ft | 8 kts | 269° |
| 2026-04-25 10:04 | 48.11821 | 16.57318 | 629 ft | 10 kts | 294° |
| 2026-04-25 10:05 | 48.11852 | 16.57217 | 625 ft | 11 kts | 294° |
| 2026-04-25 10:05 | 48.11883 | 16.57117 | 624 ft | 10 kts | 297° |
| 2026-04-25 10:05 | 48.11916 | 16.57027 | 629 ft | 5 kts | 297° |
| 2026-04-25 10:05 | 48.11910 | 16.56993 | 629 ft | 3 kts | 230° |
| 2026-04-25 10:06 | 48.11874 | 16.56954 | 627 ft | 8 kts | 207° |
| 2026-04-25 10:06 | 48.11854 | 16.56939 | 627 ft | 0 kts | 207° |